CFG236 EDDF-MPTO
Flight info
| Callsign | CFG236 |
|---|---|
| Flight time | 11h 4m |
| Altitude | 32000 |
| Route | SOBRA2U SOBRA Y180 DIK UN857 TOLVU DCT RAPOR/N0479F310 DCT GIMER DCT ESTOC DCT PON/N0474F350 DCT DITAL/N0473F360 DCT LGL DCT GALBO DCT EKRAS DCT UPALO/N0472F370 DCT FEJAC DCT BADUR DCT REGHI/M084F380 DCT ETIKI DCT 49N020W 48N030W/M084F400 45N040W 42N045W 39N050W 32N060W DCT LUCTI/N0480F400 DCT ALBBE UM594 GABUN/N0466F390 UM594 KEBET/N0465F410 UM594 HANCK UL347 TIMRO OSUPA2 |
| Aircraft | A339/H-SDE1E2E3GHIJ1J4J7LM1OP2RVWXYZ/LB1D1 |
Departure
| Time | 2026-04-16 10:00 |
|---|---|
| Airport | Frankfurt Main Airport (EDDF) |
Arrival
| Time | 2026-04-16 21:04 |
|---|---|
| Airport | Tocumen International Airport (MPTO) |
| Time | Latitude | Longitude | Altitude | Speed | Heading |
|---|---|---|---|---|---|
| 2026-04-16 08:52 | 50.04748 | 8.57134 | 363 ft | 0 kts | 120° |
| 2026-04-16 09:47 | 50.04758 | 8.57106 | 362 ft | 4 kts | 123° |
| 2026-04-16 09:47 | 50.04773 | 8.57072 | 368 ft | 4 kts | 136° |
| 2026-04-16 09:48 | 50.04791 | 8.57047 | 365 ft | 4 kts | 170° |
| 2026-04-16 09:48 | 50.04804 | 8.57042 | 362 ft | 0 kts | 204° |
| 2026-04-16 09:48 | 50.04791 | 8.57032 | 364 ft | 4 kts | 205° |
| 2026-04-16 09:48 | 50.04775 | 8.57020 | 363 ft | 0 kts | 205° |
| 2026-04-16 09:51 | 50.04765 | 8.57014 | 366 ft | 5 kts | 205° |
| 2026-04-16 09:51 | 50.04728 | 8.56987 | 368 ft | 7 kts | 205° |
| 2026-04-16 09:52 | 50.04682 | 8.56954 | 368 ft | 8 kts | 204° |
| 2026-04-16 09:52 | 50.04618 | 8.56916 | 366 ft | 11 kts | 195° |
| 2026-04-16 09:52 | 50.04549 | 8.56890 | 367 ft | 8 kts | 193° |
| 2026-04-16 09:52 | 50.04484 | 8.56867 | 366 ft | 9 kts | 193° |
| 2026-04-16 09:53 | 50.04442 | 8.56792 | 370 ft | 11 kts | 249° |
| 2026-04-16 09:53 | 50.04410 | 8.56658 | 368 ft | 15 kts | 249° |
| 2026-04-16 09:53 | 50.04369 | 8.56489 | 368 ft | 18 kts | 249° |
| 2026-04-16 09:53 | 50.04323 | 8.56294 | 366 ft | 20 kts | 249° |
| 2026-04-16 09:54 | 50.04274 | 8.56082 | 361 ft | 21 kts | 250° |
| 2026-04-16 09:54 | 50.04224 | 8.55873 | 365 ft | 21 kts | 249° |
| 2026-04-16 09:54 | 50.04173 | 8.55668 | 364 ft | 20 kts | 250° |
| 2026-04-16 09:54 | 50.04126 | 8.55471 | 361 ft | 19 kts | 249° |
| 2026-04-16 09:55 | 50.04092 | 8.55324 | 364 ft | 12 kts | 250° |
| 2026-04-16 09:55 | 50.04064 | 8.55209 | 362 ft | 11 kts | 249° |
| 2026-04-16 09:55 | 50.04039 | 8.55104 | 364 ft | 10 kts | 249° |
| 2026-04-16 09:55 | 50.04013 | 8.54998 | 363 ft | 11 kts | 249° |
| 2026-04-16 09:56 | 50.03980 | 8.54857 | 365 ft | 17 kts | 250° |
| 2026-04-16 09:56 | 50.03933 | 8.54664 | 362 ft | 19 kts | 249° |
| 2026-04-16 09:56 | 50.03886 | 8.54466 | 359 ft | 20 kts | 250° |
| 2026-04-16 09:56 | 50.03824 | 8.54293 | 360 ft | 19 kts | 234° |
| 2026-04-16 09:57 | 50.03772 | 8.54108 | 358 ft | 19 kts | 250° |
| 2026-04-16 09:57 | 50.03723 | 8.53901 | 351 ft | 21 kts | 249° |
| 2026-04-16 09:57 | 50.03669 | 8.53680 | 353 ft | 22 kts | 249° |
| 2026-04-16 09:57 | 50.03617 | 8.53475 | 352 ft | 18 kts | 250° |
| 2026-04-16 09:58 | 50.03572 | 8.53281 | 356 ft | 20 kts | 249° |
| 2026-04-16 09:58 | 50.03521 | 8.53072 | 349 ft | 21 kts | 250° |
| 2026-04-16 09:58 | 50.03467 | 8.52860 | 351 ft | 21 kts | 246° |
| 2026-04-16 09:58 | 50.03422 | 8.52686 | 346 ft | 13 kts | 249° |
| 2026-04-16 09:59 | 50.03393 | 8.52599 | 337 ft | 6 kts | 223° |
| 2026-04-16 09:59 | 50.03359 | 8.52597 | 339 ft | 0 kts | 180° |
| 2026-04-16 09:59 | 50.03309 | 8.52596 | 339 ft | 32 kts | 180° |
| 2026-04-16 09:59 | 50.02858 | 8.52600 | 339 ft | 98 kts | 180° |
| 2026-04-16 10:00 | 50.01972 | 8.52609 | 336 ft | 151 kts | 179° |
| 2026-04-16 10:00 | 50.00796 | 8.52606 | 527 ft | 175 kts | 180° |
| 2026-04-16 10:00 | 49.99567 | 8.52595 | 1083 ft | 180 kts | 180° |
| 2026-04-16 10:01 | 49.96986 | 8.52755 | 2020 ft | 196 kts | 178° |
| 2026-04-16 10:01 | 49.95586 | 8.52959 | 2443 ft | 204 kts | 176° |
| 2026-04-16 10:01 | 49.94152 | 8.53201 | 2874 ft | 211 kts | 176° |
| 2026-04-16 10:01 | 49.92666 | 8.53445 | 3292 ft | 218 kts | 176° |
| 2026-04-16 10:02 | 49.91118 | 8.53586 | 3709 ft | 227 kts | 181° |
| 2026-04-16 10:02 | 49.89515 | 8.53541 | 4100 ft | 235 kts | 187° |
| 2026-04-16 10:02 | 49.87952 | 8.52678 | 4297 ft | 245 kts | 216° |
| 2026-04-16 10:02 | 49.86795 | 8.50693 | 4482 ft | 258 kts | 243° |
| 2026-04-16 10:03 | 49.86369 | 8.47952 | 4730 ft | 270 kts | 270° |
| 2026-04-16 10:03 | 49.86488 | 8.45038 | 5306 ft | 269 kts | 274° |
| 2026-04-16 10:03 | 49.86624 | 8.42163 | 5960 ft | 266 kts | 272° |
| 2026-04-16 10:03 | 49.86663 | 8.39310 | 6594 ft | 263 kts | 270° |
| 2026-04-16 10:04 | 49.86635 | 8.36444 | 7011 ft | 270 kts | 268° |
| 2026-04-16 10:04 | 49.86570 | 8.33548 | 7411 ft | 275 kts | 268° |
| 2026-04-16 10:04 | 49.86468 | 8.30573 | 7860 ft | 278 kts | 266° |
| 2026-04-16 10:04 | 49.86334 | 8.27577 | 8418 ft | 279 kts | 266° |
| 2026-04-16 10:05 | 49.86191 | 8.24576 | 8973 ft | 279 kts | 266° |
| 2026-04-16 10:05 | 49.86051 | 8.21535 | 9501 ft | 281 kts | 266° |
| 2026-04-16 10:05 | 49.85911 | 8.18490 | 9943 ft | 285 kts | 266° |
| 2026-04-16 10:05 | 49.85784 | 8.15409 | 10407 ft | 288 kts | 267° |
| 2026-04-16 10:06 | 49.85664 | 8.12277 | 10592 ft | 301 kts | 267° |
| 2026-04-16 10:06 | 49.85533 | 8.08961 | 10722 ft | 315 kts | 266° |
| 2026-04-16 10:06 | 49.85391 | 8.05495 | 10923 ft | 327 kts | 266° |
| 2026-04-16 10:06 | 49.85243 | 8.01971 | 11372 ft | 329 kts | 266° |
| 2026-04-16 10:07 | 49.85093 | 7.98429 | 11873 ft | 330 kts | 266° |
| 2026-04-16 10:07 | 49.84941 | 7.94877 | 12349 ft | 331 kts | 266° |
| 2026-04-16 10:07 | 49.84787 | 7.91303 | 12814 ft | 333 kts | 266° |
| 2026-04-16 10:07 | 49.84632 | 7.87716 | 13277 ft | 335 kts | 266° |
| 2026-04-16 10:08 | 49.84475 | 7.84108 | 13748 ft | 337 kts | 266° |
| 2026-04-16 10:08 | 49.84316 | 7.80479 | 14183 ft | 339 kts | 266° |
| 2026-04-16 10:08 | 49.84155 | 7.76829 | 14598 ft | 340 kts | 266° |
| 2026-04-16 10:08 | 49.83991 | 7.73167 | 14989 ft | 342 kts | 266° |
| 2026-04-16 10:09 | 49.83826 | 7.69478 | 15403 ft | 344 kts | 266° |
| 2026-04-16 10:09 | 49.83660 | 7.65782 | 15807 ft | 346 kts | 266° |
| 2026-04-16 10:09 | 49.83491 | 7.62050 | 16211 ft | 347 kts | 266° |
| 2026-04-16 10:09 | 49.83320 | 7.58311 | 16629 ft | 349 kts | 266° |
| 2026-04-16 10:10 | 49.83146 | 7.54560 | 17039 ft | 351 kts | 266° |
| 2026-04-16 10:10 | 49.82971 | 7.50778 | 17417 ft | 353 kts | 266° |
| 2026-04-16 10:10 | 49.82793 | 7.46977 | 17821 ft | 355 kts | 266° |
| 2026-04-16 10:10 | 49.82613 | 7.43166 | 18222 ft | 356 kts | 266° |
| 2026-04-16 10:11 | 49.82431 | 7.39318 | 18600 ft | 359 kts | 266° |
| 2026-04-16 10:11 | 49.82246 | 7.35450 | 18938 ft | 360 kts | 266° |
| 2026-04-16 10:11 | 49.82060 | 7.31583 | 19316 ft | 361 kts | 266° |
| 2026-04-16 10:11 | 49.81871 | 7.27685 | 19668 ft | 363 kts | 266° |
| 2026-04-16 10:12 | 49.81681 | 7.23786 | 20004 ft | 365 kts | 266° |
| 2026-04-16 10:12 | 49.81487 | 7.19861 | 20362 ft | 366 kts | 266° |
| 2026-04-16 10:12 | 49.81292 | 7.15923 | 20721 ft | 368 kts | 266° |
| 2026-04-16 10:12 | 49.81061 | 7.11970 | 21072 ft | 370 kts | 264° |
| 2026-04-16 10:13 | 49.80658 | 7.08032 | 21421 ft | 372 kts | 261° |
| 2026-04-16 10:13 | 49.80187 | 7.04081 | 21762 ft | 374 kts | 261° |
| 2026-04-16 10:13 | 49.79717 | 7.00117 | 22111 ft | 376 kts | 261° |
| 2026-04-16 10:13 | 49.79268 | 6.96173 | 22458 ft | 378 kts | 262° |
| 2026-04-16 10:14 | 49.78825 | 6.92156 | 22801 ft | 380 kts | 262° |
| 2026-04-16 10:14 | 49.78387 | 6.88119 | 23159 ft | 381 kts | 262° |
| 2026-04-16 10:14 | 49.77948 | 6.84059 | 23536 ft | 384 kts | 262° |
| 2026-04-16 10:14 | 49.77505 | 6.79974 | 23875 ft | 386 kts | 262° |
| 2026-04-16 10:15 | 49.77061 | 6.75875 | 24183 ft | 387 kts | 262° |
| 2026-04-16 10:15 | 49.76613 | 6.71764 | 24515 ft | 388 kts | 262° |
| 2026-04-16 10:15 | 49.76163 | 6.67644 | 24809 ft | 389 kts | 262° |
| 2026-04-16 10:15 | 49.75709 | 6.63512 | 25148 ft | 390 kts | 262° |
| 2026-04-16 10:16 | 49.75252 | 6.59364 | 25455 ft | 392 kts | 262° |
| 2026-04-16 10:16 | 49.74791 | 6.55201 | 25784 ft | 393 kts | 262° |
| 2026-04-16 10:16 | 49.74328 | 6.51030 | 26115 ft | 394 kts | 262° |
| 2026-04-16 10:16 | 49.73862 | 6.46845 | 26419 ft | 395 kts | 262° |
| 2026-04-16 10:17 | 49.73394 | 6.42656 | 26701 ft | 397 kts | 262° |
| 2026-04-16 10:17 | 49.72921 | 6.38445 | 26996 ft | 399 kts | 262° |
| 2026-04-16 10:17 | 49.72444 | 6.34204 | 27305 ft | 399 kts | 262° |
| 2026-04-16 10:17 | 49.71966 | 6.29971 | 27595 ft | 401 kts | 262° |
| 2026-04-16 10:18 | 49.71484 | 6.25719 | 27859 ft | 403 kts | 262° |
| 2026-04-16 10:18 | 49.70999 | 6.21446 | 28138 ft | 404 kts | 262° |
| 2026-04-16 10:18 | 49.70511 | 6.17168 | 28419 ft | 405 kts | 262° |
| 2026-04-16 10:18 | 49.70019 | 6.12873 | 28689 ft | 407 kts | 262° |
| 2026-04-16 10:19 | 49.69524 | 6.08560 | 28934 ft | 409 kts | 262° |
| 2026-04-16 10:19 | 49.69025 | 6.04233 | 29182 ft | 410 kts | 262° |
| 2026-04-16 10:19 | 49.68523 | 5.99893 | 29447 ft | 411 kts | 261° |
| 2026-04-16 10:19 | 49.68018 | 5.95537 | 29675 ft | 413 kts | 261° |
| 2026-04-16 10:20 | 49.67509 | 5.91166 | 29892 ft | 415 kts | 261° |
| 2026-04-16 10:20 | 49.66995 | 5.86767 | 30134 ft | 417 kts | 261° |
| 2026-04-16 10:20 | 49.66477 | 5.82351 | 30354 ft | 419 kts | 261° |
| 2026-04-16 10:20 | 49.65956 | 5.77927 | 30559 ft | 420 kts | 261° |
| 2026-04-16 10:21 | 49.65431 | 5.73482 | 30762 ft | 422 kts | 262° |
| 2026-04-16 10:21 | 49.64901 | 5.69014 | 30978 ft | 424 kts | 262° |
| 2026-04-16 10:21 | 49.64370 | 5.64546 | 31213 ft | 425 kts | 262° |
| 2026-04-16 10:21 | 49.63834 | 5.60051 | 31428 ft | 426 kts | 262° |
| 2026-04-16 10:22 | 49.63295 | 5.55546 | 31632 ft | 428 kts | 262° |
| 2026-04-16 10:22 | 49.62757 | 5.51065 | 31846 ft | 429 kts | 262° |
| 2026-04-16 10:22 | 49.62205 | 5.46488 | 32069 ft | 430 kts | 262° |
| 2026-04-16 10:22 | 49.61656 | 5.41951 | 32298 ft | 431 kts | 262° |
| 2026-04-16 10:23 | 49.61103 | 5.37397 | 32510 ft | 433 kts | 262° |
| 2026-04-16 10:23 | 49.60548 | 5.32837 | 32706 ft | 433 kts | 262° |
| 2026-04-16 10:23 | 49.59989 | 5.28267 | 32889 ft | 434 kts | 262° |
| 2026-04-16 10:23 | 49.59430 | 5.23695 | 33051 ft | 435 kts | 262° |
| 2026-04-16 10:24 | 49.58766 | 5.19124 | 33170 ft | 438 kts | 257° |
| 2026-04-16 10:24 | 49.57943 | 5.14600 | 33235 ft | 440 kts | 257° |
| 2026-04-16 10:24 | 49.56389 | 5.05376 | 33237 ft | 439 kts | 263° |
| 2026-04-16 10:25 | 49.55314 | 4.96091 | 33241 ft | 440 kts | 262° |
| 2026-04-16 10:25 | 49.54228 | 4.86828 | 33246 ft | 439 kts | 262° |
| 2026-04-16 10:26 | 49.53347 | 4.79121 | 33243 ft | 440 kts | 262° |
| 2026-04-16 10:26 | 49.52289 | 4.69860 | 33244 ft | 439 kts | 262° |
| 2026-04-16 10:27 | 49.51219 | 4.60596 | 33242 ft | 439 kts | 262° |
| 2026-04-16 10:27 | 49.50141 | 4.51344 | 33242 ft | 439 kts | 262° |
| 2026-04-16 10:28 | 49.49056 | 4.42103 | 33247 ft | 439 kts | 262° |
| 2026-04-16 10:28 | 49.47963 | 4.32864 | 33247 ft | 439 kts | 262° |
| 2026-04-16 10:29 | 49.46864 | 4.23633 | 33244 ft | 439 kts | 261° |
| 2026-04-16 10:29 | 49.45757 | 4.14411 | 33249 ft | 439 kts | 261° |
| 2026-04-16 10:30 | 49.44643 | 4.05181 | 33250 ft | 439 kts | 261° |
| 2026-04-16 10:30 | 49.43520 | 3.95954 | 33249 ft | 439 kts | 261° |
| 2026-04-16 10:31 | 49.42390 | 3.86736 | 33248 ft | 439 kts | 261° |
| 2026-04-16 10:31 | 49.41253 | 3.77520 | 33248 ft | 439 kts | 261° |
| 2026-04-16 10:32 | 49.40108 | 3.68303 | 33244 ft | 439 kts | 261° |
| 2026-04-16 10:32 | 49.38956 | 3.59090 | 33249 ft | 439 kts | 261° |
| 2026-04-16 10:33 | 49.37796 | 3.49880 | 33245 ft | 439 kts | 260° |
| 2026-04-16 10:33 | 49.36630 | 3.40684 | 33241 ft | 439 kts | 260° |
| 2026-04-16 10:34 | 49.35457 | 3.31494 | 33243 ft | 439 kts | 260° |
| 2026-04-16 10:34 | 49.34277 | 3.22314 | 33251 ft | 439 kts | 260° |
| 2026-04-16 10:35 | 49.33099 | 3.13200 | 33253 ft | 438 kts | 260° |
| 2026-04-16 10:35 | 49.31898 | 3.03977 | 33247 ft | 438 kts | 259° |
| 2026-04-16 10:36 | 49.30706 | 2.94878 | 33243 ft | 438 kts | 259° |
| 2026-04-16 10:36 | 49.29499 | 2.85736 | 33250 ft | 438 kts | 259° |
| 2026-04-16 10:37 | 49.28285 | 2.76591 | 33243 ft | 438 kts | 259° |
| 2026-04-16 10:37 | 49.27064 | 2.67446 | 33249 ft | 438 kts | 259° |
| 2026-04-16 10:38 | 49.25835 | 2.58312 | 33255 ft | 438 kts | 259° |
| 2026-04-16 10:38 | 49.24600 | 2.49187 | 33251 ft | 438 kts | 258° |
| 2026-04-16 10:39 | 49.23356 | 2.40050 | 33252 ft | 438 kts | 258° |
| 2026-04-16 10:39 | 49.22105 | 2.30924 | 33256 ft | 438 kts | 258° |
| 2026-04-16 10:40 | 49.20849 | 2.21808 | 33262 ft | 438 kts | 258° |
| 2026-04-16 10:40 | 49.19582 | 2.12683 | 33269 ft | 438 kts | 258° |
| 2026-04-16 10:41 | 49.18321 | 2.03642 | 33266 ft | 438 kts | 258° |
| 2026-04-16 10:41 | 49.17035 | 1.94495 | 33265 ft | 437 kts | 257° |
| 2026-04-16 10:42 | 49.16185 | 1.88475 | 33264 ft | 437 kts | 257° |
| 2026-04-16 10:42 | 49.14835 | 1.78966 | 33258 ft | 437 kts | 257° |
| 2026-04-16 10:43 | 49.13543 | 1.69905 | 33259 ft | 436 kts | 257° |
| 2026-04-16 10:43 | 49.12242 | 1.60859 | 33252 ft | 436 kts | 257° |
| 2026-04-16 10:44 | 49.10937 | 1.51824 | 33257 ft | 436 kts | 256° |
| 2026-04-16 10:44 | 49.09626 | 1.42814 | 33263 ft | 435 kts | 256° |
| 2026-04-16 10:45 | 49.08310 | 1.33812 | 33269 ft | 435 kts | 256° |
| 2026-04-16 10:45 | 49.06985 | 1.24802 | 33273 ft | 434 kts | 256° |
| 2026-04-16 10:46 | 49.05657 | 1.15825 | 33266 ft | 434 kts | 256° |
| 2026-04-16 10:46 | 49.04324 | 1.06865 | 33268 ft | 433 kts | 256° |
| 2026-04-16 10:47 | 49.02985 | 0.97916 | 33256 ft | 433 kts | 255° |
| 2026-04-16 10:47 | 49.01639 | 0.88976 | 33255 ft | 432 kts | 255° |
| 2026-04-16 10:48 | 49.00290 | 0.80061 | 33257 ft | 432 kts | 255° |
| 2026-04-16 10:48 | 48.98931 | 0.71136 | 33247 ft | 432 kts | 255° |
| 2026-04-16 10:49 | 48.97568 | 0.62230 | 33246 ft | 432 kts | 255° |
| 2026-04-16 10:49 | 48.96197 | 0.53331 | 33241 ft | 432 kts | 255° |
| 2026-04-16 10:50 | 48.94819 | 0.44428 | 33246 ft | 432 kts | 254° |
| 2026-04-16 10:50 | 48.93435 | 0.35532 | 33401 ft | 432 kts | 254° |
| 2026-04-16 10:51 | 48.92741 | 0.31091 | 33583 ft | 431 kts | 254° |
| 2026-04-16 10:51 | 48.92047 | 0.26659 | 33748 ft | 430 kts | 254° |
| 2026-04-16 10:51 | 48.91361 | 0.22288 | 33899 ft | 430 kts | 253° |
| 2026-04-16 10:51 | 48.90664 | 0.17872 | 34069 ft | 429 kts | 253° |
| 2026-04-16 10:52 | 48.89970 | 0.13478 | 34231 ft | 428 kts | 253° |
| 2026-04-16 10:52 | 48.89275 | 0.09089 | 34370 ft | 427 kts | 253° |
| 2026-04-16 10:52 | 48.88579 | 0.04705 | 34486 ft | 426 kts | 253° |
| 2026-04-16 10:52 | 48.87882 | 0.00327 | 34611 ft | 426 kts | 253° |
| 2026-04-16 10:53 | 48.87208 | -0.03901 | 34722 ft | 426 kts | 253° |
| 2026-04-16 10:53 | 48.86510 | -0.08269 | 34823 ft | 425 kts | 253° |
| 2026-04-16 10:53 | 48.85113 | -0.16990 | 35057 ft | 425 kts | 253° |
| 2026-04-16 10:54 | 48.84107 | -0.25840 | 35228 ft | 429 kts | 262° |
| 2026-04-16 10:54 | 48.84327 | -0.34944 | 35237 ft | 433 kts | 270° |
| 2026-04-16 10:55 | 48.84839 | -0.44046 | 35235 ft | 433 kts | 269° |
| 2026-04-16 10:55 | 48.85323 | -0.53154 | 35237 ft | 432 kts | 269° |
| 2026-04-16 10:56 | 48.85793 | -0.62262 | 35237 ft | 433 kts | 269° |
| 2026-04-16 10:56 | 48.86256 | -0.71384 | 35233 ft | 433 kts | 269° |
| 2026-04-16 10:57 | 48.86715 | -0.80510 | 35223 ft | 434 kts | 269° |
| 2026-04-16 10:57 | 48.87167 | -0.89666 | 35224 ft | 435 kts | 269° |
| 2026-04-16 10:58 | 48.87607 | -0.98742 | 35225 ft | 435 kts | 269° |
| 2026-04-16 10:58 | 48.88045 | -1.07908 | 35236 ft | 435 kts | 269° |
| 2026-04-16 10:59 | 48.88479 | -1.17148 | 35240 ft | 435 kts | 269° |
| 2026-04-16 10:59 | 48.88903 | -1.26324 | 35239 ft | 436 kts | 268° |
| 2026-04-16 11:00 | 48.89319 | -1.35512 | 35238 ft | 436 kts | 268° |
| 2026-04-16 11:00 | 48.89727 | -1.44696 | 35238 ft | 435 kts | 268° |
| 2026-04-16 11:01 | 48.90131 | -1.53880 | 35239 ft | 435 kts | 268° |
| 2026-04-16 11:01 | 48.90527 | -1.63055 | 35236 ft | 434 kts | 268° |
| 2026-04-16 11:02 | 48.90770 | -1.72131 | 35231 ft | 429 kts | 262° |
| 2026-04-16 11:02 | 48.90089 | -1.81025 | 35227 ft | 420 kts | 253° |
| 2026-04-16 11:03 | 48.88697 | -1.89614 | 35224 ft | 418 kts | 251° |
| 2026-04-16 11:04 | 48.86614 | -2.02467 | 35226 ft | 417 kts | 251° |
| 2026-04-16 11:04 | 48.85219 | -2.11006 | 35227 ft | 417 kts | 251° |
| 2026-04-16 11:05 | 48.83816 | -2.19541 | 35228 ft | 416 kts | 251° |
| 2026-04-16 11:05 | 48.82406 | -2.28071 | 35229 ft | 416 kts | 251° |
| 2026-04-16 11:06 | 48.80992 | -2.36582 | 35229 ft | 415 kts | 251° |
| 2026-04-16 11:06 | 48.79574 | -2.45074 | 35228 ft | 415 kts | 251° |
| 2026-04-16 11:07 | 48.78153 | -2.53547 | 35216 ft | 414 kts | 251° |
| 2026-04-16 11:07 | 48.76736 | -2.61953 | 35222 ft | 414 kts | 251° |
| 2026-04-16 11:08 | 48.75308 | -2.70390 | 35217 ft | 413 kts | 251° |
| 2026-04-16 11:08 | 48.73876 | -2.78809 | 35211 ft | 412 kts | 251° |
| 2026-04-16 11:09 | 48.72465 | -2.87068 | 35213 ft | 411 kts | 251° |
| 2026-04-16 11:09 | 48.71261 | -2.94090 | 35226 ft | 411 kts | 251° |
| 2026-04-16 11:10 | 48.70192 | -3.02569 | 35206 ft | 413 kts | 255° |
| 2026-04-16 11:10 | 48.69184 | -3.11134 | 35202 ft | 413 kts | 255° |
| 2026-04-16 11:11 | 48.68169 | -3.19698 | 35197 ft | 414 kts | 255° |
| 2026-04-16 11:11 | 48.67147 | -3.28265 | 35203 ft | 414 kts | 255° |
| 2026-04-16 11:12 | 48.66116 | -3.36836 | 35201 ft | 414 kts | 255° |
| 2026-04-16 11:12 | 48.65075 | -3.45408 | 35212 ft | 415 kts | 255° |
| 2026-04-16 11:13 | 48.64027 | -3.53985 | 35213 ft | 415 kts | 255° |
| 2026-04-16 11:13 | 48.62973 | -3.62559 | 35217 ft | 414 kts | 255° |
| 2026-04-16 11:14 | 48.61914 | -3.71112 | 35216 ft | 414 kts | 255° |
| 2026-04-16 11:14 | 48.60866 | -3.79526 | 35214 ft | 414 kts | 254° |
| 2026-04-16 11:15 | 48.59796 | -3.88062 | 35214 ft | 413 kts | 254° |
| 2026-04-16 11:15 | 48.58722 | -3.96573 | 35214 ft | 413 kts | 254° |
| 2026-04-16 11:16 | 48.57641 | -4.05089 | 35207 ft | 412 kts | 254° |
| 2026-04-16 11:16 | 48.56556 | -4.13585 | 35210 ft | 412 kts | 254° |
| 2026-04-16 11:17 | 48.55463 | -4.22083 | 35206 ft | 412 kts | 254° |
| 2026-04-16 11:17 | 48.54374 | -4.30513 | 35208 ft | 412 kts | 254° |
| 2026-04-16 11:18 | 48.53271 | -4.38996 | 35207 ft | 412 kts | 254° |
| 2026-04-16 11:18 | 48.52161 | -4.47472 | 35211 ft | 411 kts | 254° |
| 2026-04-16 11:19 | 48.51046 | -4.55938 | 35208 ft | 411 kts | 254° |
| 2026-04-16 11:19 | 48.49925 | -4.64394 | 35209 ft | 411 kts | 254° |
| 2026-04-16 11:20 | 48.48800 | -4.72844 | 35197 ft | 411 kts | 254° |
| 2026-04-16 11:20 | 48.47667 | -4.81291 | 35192 ft | 411 kts | 254° |
| 2026-04-16 11:21 | 48.46528 | -4.89733 | 35189 ft | 411 kts | 254° |
| 2026-04-16 11:21 | 48.45384 | -4.98163 | 35196 ft | 411 kts | 254° |
| 2026-04-16 11:22 | 48.44242 | -5.06539 | 35191 ft | 411 kts | 254° |
| 2026-04-16 11:22 | 48.43084 | -5.14974 | 35192 ft | 411 kts | 254° |
| 2026-04-16 11:23 | 48.41922 | -5.23393 | 35184 ft | 411 kts | 254° |
| 2026-04-16 11:23 | 48.40752 | -5.31820 | 35196 ft | 412 kts | 254° |
| 2026-04-16 11:24 | 48.39572 | -5.40272 | 35345 ft | 413 kts | 254° |
| 2026-04-16 11:24 | 48.38384 | -5.48731 | 35510 ft | 413 kts | 254° |
| 2026-04-16 11:25 | 48.37189 | -5.57194 | 35666 ft | 414 kts | 254° |
| 2026-04-16 11:25 | 48.35988 | -5.65658 | 35818 ft | 414 kts | 254° |
| 2026-04-16 11:26 | 48.34779 | -5.74119 | 35979 ft | 414 kts | 254° |
| 2026-04-16 11:26 | 48.33562 | -5.82592 | 36128 ft | 415 kts | 255° |
| 2026-04-16 11:27 | 48.32351 | -5.90982 | 36186 ft | 415 kts | 255° |
| 2026-04-16 11:27 | 48.31117 | -5.99481 | 36184 ft | 415 kts | 255° |
| 2026-04-16 11:28 | 48.29882 | -6.07943 | 36179 ft | 415 kts | 254° |
| 2026-04-16 11:28 | 48.28638 | -6.16417 | 36183 ft | 415 kts | 254° |
| 2026-04-16 11:29 | 48.27389 | -6.24879 | 36180 ft | 415 kts | 254° |
| 2026-04-16 11:29 | 48.26132 | -6.33347 | 36178 ft | 415 kts | 254° |
| 2026-04-16 11:30 | 48.24870 | -6.41805 | 36174 ft | 415 kts | 254° |
| 2026-04-16 11:30 | 48.23602 | -6.50256 | 36170 ft | 416 kts | 254° |
| 2026-04-16 11:31 | 48.22346 | -6.58578 | 36166 ft | 416 kts | 254° |
| 2026-04-16 11:31 | 48.21062 | -6.67047 | 36170 ft | 416 kts | 254° |
| 2026-04-16 11:32 | 48.19773 | -6.75503 | 36167 ft | 416 kts | 254° |
| 2026-04-16 11:32 | 48.18476 | -6.83968 | 36172 ft | 417 kts | 254° |
| 2026-04-16 11:33 | 48.17171 | -6.92434 | 36167 ft | 417 kts | 255° |
| 2026-04-16 11:33 | 48.15862 | -7.00887 | 36168 ft | 417 kts | 255° |
| 2026-04-16 11:34 | 48.14544 | -7.09350 | 36166 ft | 417 kts | 254° |
| 2026-04-16 11:34 | 48.13220 | -7.17811 | 36166 ft | 417 kts | 254° |
| 2026-04-16 11:35 | 48.11899 | -7.26206 | 36162 ft | 417 kts | 254° |
| 2026-04-16 11:35 | 48.10555 | -7.34706 | 36166 ft | 417 kts | 254° |
| 2026-04-16 11:36 | 48.09222 | -7.43094 | 36161 ft | 417 kts | 254° |
| 2026-04-16 11:36 | 48.07874 | -7.51532 | 36162 ft | 417 kts | 254° |
| 2026-04-16 11:37 | 48.06519 | -7.59967 | 36156 ft | 417 kts | 254° |
| 2026-04-16 11:37 | 48.05160 | -7.68389 | 36160 ft | 417 kts | 254° |
| 2026-04-16 11:38 | 48.03793 | -7.76815 | 36153 ft | 417 kts | 254° |
| 2026-04-16 11:38 | 48.02425 | -7.85221 | 36154 ft | 417 kts | 254° |
| 2026-04-16 11:39 | 48.01052 | -7.93633 | 36152 ft | 416 kts | 254° |
| 2026-04-16 11:39 | 48.00045 | -8.02145 | 36150 ft | 419 kts | 263° |
| 2026-04-16 11:40 | 48.00010 | -8.10812 | 36144 ft | 420 kts | 267° |
| 2026-04-16 11:40 | 48.00045 | -8.19544 | 36143 ft | 420 kts | 266° |
| 2026-04-16 11:41 | 48.00058 | -8.28268 | 36140 ft | 420 kts | 266° |
| 2026-04-16 11:41 | 48.00061 | -8.36993 | 36139 ft | 420 kts | 266° |
| 2026-04-16 11:42 | 48.00057 | -8.45723 | 36140 ft | 420 kts | 266° |
| 2026-04-16 11:42 | 48.00049 | -8.54437 | 36060 ft | 419 kts | 266° |
| 2026-04-16 11:43 | 48.00035 | -8.63169 | 36115 ft | 423 kts | 266° |
| 2026-04-16 11:43 | 48.00035 | -8.71981 | 36118 ft | 425 kts | 268° |
| 2026-04-16 11:44 | 48.00783 | -8.80772 | 36123 ft | 430 kts | 277° |
| 2026-04-16 11:44 | 48.02028 | -8.89514 | 36122 ft | 430 kts | 276° |
| 2026-04-16 11:45 | 48.03236 | -8.98254 | 36120 ft | 430 kts | 276° |
| 2026-04-16 11:45 | 48.04444 | -9.06998 | 36117 ft | 430 kts | 276° |
| 2026-04-16 11:46 | 48.05639 | -9.15689 | 36114 ft | 429 kts | 276° |
| 2026-04-16 11:46 | 48.06831 | -9.24435 | 36112 ft | 429 kts | 276° |
| 2026-04-16 11:47 | 48.08014 | -9.33183 | 36112 ft | 429 kts | 276° |
| 2026-04-16 11:47 | 48.09190 | -9.41928 | 36105 ft | 428 kts | 276° |
| 2026-04-16 11:48 | 48.10356 | -9.50655 | 36104 ft | 428 kts | 276° |
| 2026-04-16 11:48 | 48.11516 | -9.59393 | 36096 ft | 428 kts | 276° |
| 2026-04-16 11:49 | 48.12671 | -9.68136 | 36101 ft | 427 kts | 275° |
| 2026-04-16 11:49 | 48.13815 | -9.76862 | 36095 ft | 427 kts | 275° |
| 2026-04-16 11:50 | 48.14953 | -9.85589 | 36095 ft | 427 kts | 275° |
| 2026-04-16 11:50 | 48.16074 | -9.94245 | 36091 ft | 426 kts | 275° |
| 2026-04-16 11:51 | 48.17197 | -10.02963 | 36089 ft | 426 kts | 275° |
| 2026-04-16 11:51 | 48.18310 | -10.11666 | 36084 ft | 425 kts | 275° |
| 2026-04-16 11:52 | 48.19415 | -10.20362 | 36078 ft | 425 kts | 275° |
| 2026-04-16 11:52 | 48.20514 | -10.29062 | 36076 ft | 424 kts | 274° |
| 2026-04-16 11:53 | 48.21605 | -10.37754 | 36078 ft | 424 kts | 274° |
| 2026-04-16 11:53 | 48.22689 | -10.46453 | 36080 ft | 424 kts | 274° |
| 2026-04-16 11:54 | 48.23766 | -10.55139 | 36063 ft | 424 kts | 274° |
| 2026-04-16 11:54 | 48.24836 | -10.63840 | 36057 ft | 423 kts | 274° |
| 2026-04-16 11:55 | 48.25898 | -10.72527 | 36061 ft | 423 kts | 274° |
| 2026-04-16 11:55 | 48.26954 | -10.81213 | 36056 ft | 423 kts | 274° |
| 2026-04-16 11:56 | 48.27824 | -10.88418 | 36055 ft | 423 kts | 274° |
| 2026-04-16 11:56 | 48.29036 | -10.98532 | 36048 ft | 423 kts | 273° |
| 2026-04-16 11:57 | 48.30071 | -11.07217 | 36043 ft | 422 kts | 273° |
| 2026-04-16 11:57 | 48.31098 | -11.15905 | 36040 ft | 422 kts | 273° |
| 2026-04-16 11:58 | 48.31953 | -11.23183 | 36039 ft | 422 kts | 273° |
| 2026-04-16 11:58 | 48.32962 | -11.31816 | 36035 ft | 422 kts | 273° |
| 2026-04-16 11:59 | 48.33971 | -11.40515 | 36031 ft | 422 kts | 273° |
| 2026-04-16 11:59 | 48.34972 | -11.49211 | 36027 ft | 422 kts | 273° |
| 2026-04-16 12:00 | 48.35967 | -11.57906 | 36026 ft | 422 kts | 272° |
| 2026-04-16 12:00 | 48.36956 | -11.66613 | 36018 ft | 422 kts | 272° |
| 2026-04-16 12:01 | 48.37938 | -11.75312 | 36016 ft | 422 kts | 272° |
| 2026-04-16 12:01 | 48.38914 | -11.84031 | 36010 ft | 422 kts | 272° |
| 2026-04-16 12:02 | 48.40365 | -11.97098 | 36012 ft | 422 kts | 272° |
| 2026-04-16 12:02 | 48.41323 | -12.05804 | 36005 ft | 422 kts | 272° |
| 2026-04-16 12:03 | 48.42274 | -12.14521 | 36000 ft | 422 kts | 272° |
| 2026-04-16 12:03 | 48.43215 | -12.23191 | 35995 ft | 422 kts | 272° |
| 2026-04-16 12:04 | 48.44154 | -12.31913 | 35980 ft | 422 kts | 272° |
| 2026-04-16 12:04 | 48.45087 | -12.40650 | 35978 ft | 422 kts | 272° |
| 2026-04-16 12:05 | 48.46017 | -12.49437 | 35980 ft | 426 kts | 272° |
| 2026-04-16 12:05 | 48.46947 | -12.58277 | 35982 ft | 429 kts | 271° |
| 2026-04-16 12:06 | 48.47877 | -12.67181 | 35979 ft | 430 kts | 271° |
| 2026-04-16 12:06 | 48.48802 | -12.76106 | 35975 ft | 432 kts | 271° |
| 2026-04-16 12:07 | 48.49723 | -12.85063 | 35967 ft | 433 kts | 271° |
| 2026-04-16 12:07 | 48.50639 | -12.94045 | 35957 ft | 433 kts | 271° |
| 2026-04-16 12:08 | 48.51542 | -13.02977 | 35953 ft | 434 kts | 271° |
| 2026-04-16 12:08 | 48.52446 | -13.11986 | 35945 ft | 434 kts | 271° |
| 2026-04-16 12:09 | 48.53343 | -13.20998 | 35947 ft | 435 kts | 271° |
| 2026-04-16 12:09 | 48.54233 | -13.30011 | 35927 ft | 435 kts | 271° |
| 2026-04-16 12:10 | 48.55117 | -13.39038 | 35921 ft | 435 kts | 271° |
| 2026-04-16 12:10 | 48.55996 | -13.48092 | 35919 ft | 435 kts | 271° |
| 2026-04-16 12:11 | 48.56867 | -13.57148 | 35916 ft | 436 kts | 271° |
| 2026-04-16 12:11 | 48.57731 | -13.66198 | 35911 ft | 436 kts | 271° |
| 2026-04-16 12:12 | 48.58589 | -13.75273 | 35908 ft | 436 kts | 271° |
| 2026-04-16 12:12 | 48.59441 | -13.84352 | 35902 ft | 437 kts | 271° |
| 2026-04-16 12:13 | 48.60286 | -13.93439 | 35897 ft | 437 kts | 271° |
| 2026-04-16 12:13 | 48.61125 | -14.02540 | 35892 ft | 438 kts | 271° |
| 2026-04-16 12:14 | 48.61958 | -14.11655 | 35885 ft | 438 kts | 271° |
| 2026-04-16 12:14 | 48.62784 | -14.20781 | 35885 ft | 438 kts | 271° |
| 2026-04-16 12:15 | 48.63604 | -14.29921 | 35880 ft | 439 kts | 271° |
| 2026-04-16 12:15 | 48.64418 | -14.39076 | 35876 ft | 439 kts | 271° |
| 2026-04-16 12:16 | 48.65225 | -14.48230 | 35866 ft | 440 kts | 271° |
| 2026-04-16 12:16 | 48.66025 | -14.57399 | 35865 ft | 440 kts | 271° |
| 2026-04-16 12:17 | 48.66818 | -14.66581 | 35854 ft | 441 kts | 271° |
| 2026-04-16 12:17 | 48.67606 | -14.75777 | 35853 ft | 441 kts | 271° |
| 2026-04-16 12:18 | 48.68386 | -14.84977 | 35845 ft | 441 kts | 271° |
| 2026-04-16 12:18 | 48.69160 | -14.94195 | 35846 ft | 442 kts | 271° |
| 2026-04-16 12:19 | 48.69929 | -15.03434 | 35844 ft | 443 kts | 271° |
| 2026-04-16 12:19 | 48.70694 | -15.12686 | 35837 ft | 443 kts | 271° |
| 2026-04-16 12:20 | 48.71453 | -15.21925 | 35831 ft | 443 kts | 271° |
| 2026-04-16 12:20 | 48.72203 | -15.31130 | 35833 ft | 443 kts | 271° |
| 2026-04-16 12:21 | 48.72854 | -15.40397 | 35816 ft | 443 kts | 271° |
| 2026-04-16 12:21 | 48.73615 | -15.49671 | 35807 ft | 444 kts | 271° |
| 2026-04-16 12:22 | 48.74368 | -15.58954 | 35811 ft | 444 kts | 271° |
| 2026-04-16 12:22 | 48.75094 | -15.68268 | 35824 ft | 446 kts | 271° |
| 2026-04-16 12:23 | 48.75808 | -15.77621 | 35821 ft | 447 kts | 271° |
| 2026-04-16 12:23 | 48.76516 | -15.86996 | 35818 ft | 448 kts | 271° |
| 2026-04-16 12:24 | 48.77216 | -15.96363 | 35803 ft | 446 kts | 271° |
| 2026-04-16 12:24 | 48.77905 | -16.05700 | 35787 ft | 446 kts | 271° |
| 2026-04-16 12:25 | 48.78586 | -16.15035 | 35773 ft | 445 kts | 271° |
| 2026-04-16 12:25 | 48.79258 | -16.24367 | 35769 ft | 445 kts | 270° |
| 2026-04-16 12:26 | 48.79923 | -16.33719 | 35770 ft | 447 kts | 271° |
| 2026-04-16 12:26 | 48.80582 | -16.43037 | 35770 ft | 448 kts | 271° |
| 2026-04-16 12:27 | 48.81239 | -16.52442 | 35771 ft | 448 kts | 270° |
| 2026-04-16 12:27 | 48.81886 | -16.61834 | 35755 ft | 447 kts | 270° |
| 2026-04-16 12:28 | 48.82524 | -16.71230 | 35740 ft | 447 kts | 270° |
| 2026-04-16 12:28 | 48.83155 | -16.80622 | 35740 ft | 448 kts | 270° |
| 2026-04-16 12:29 | 48.83778 | -16.90017 | 35733 ft | 448 kts | 270° |
| 2026-04-16 12:29 | 48.84395 | -16.99433 | 35729 ft | 448 kts | 270° |
| 2026-04-16 12:30 | 48.85004 | -17.08839 | 35721 ft | 447 kts | 270° |
| 2026-04-16 12:30 | 48.85604 | -17.18238 | 35714 ft | 447 kts | 270° |
| 2026-04-16 12:31 | 48.86196 | -17.27651 | 35710 ft | 448 kts | 270° |
| 2026-04-16 12:31 | 48.86783 | -17.37081 | 35704 ft | 449 kts | 270° |
| 2026-04-16 12:32 | 48.87363 | -17.46522 | 35704 ft | 449 kts | 270° |
| 2026-04-16 12:32 | 48.87934 | -17.55955 | 35698 ft | 449 kts | 270° |
| 2026-04-16 12:33 | 48.88495 | -17.65347 | 35694 ft | 449 kts | 270° |
| 2026-04-16 12:33 | 48.89051 | -17.74798 | 35689 ft | 449 kts | 270° |
| 2026-04-16 12:34 | 48.89601 | -17.84259 | 35685 ft | 449 kts | 270° |
| 2026-04-16 12:34 | 48.90142 | -17.93721 | 35682 ft | 450 kts | 270° |
| 2026-04-16 12:35 | 48.90676 | -18.03188 | 35677 ft | 450 kts | 270° |
| 2026-04-16 12:35 | 48.91203 | -18.12666 | 35674 ft | 450 kts | 270° |
| 2026-04-16 12:36 | 48.91722 | -18.22154 | 35670 ft | 450 kts | 270° |
| 2026-04-16 12:36 | 48.92233 | -18.31638 | 35663 ft | 451 kts | 270° |
| 2026-04-16 12:37 | 48.92737 | -18.41141 | 35662 ft | 451 kts | 270° |
| 2026-04-16 12:37 | 48.93230 | -18.50580 | 35659 ft | 451 kts | 270° |
| 2026-04-16 12:38 | 48.93719 | -18.60086 | 35647 ft | 451 kts | 270° |
| 2026-04-16 12:38 | 48.94200 | -18.69601 | 35644 ft | 451 kts | 270° |
| 2026-04-16 12:39 | 48.94674 | -18.79127 | 35641 ft | 451 kts | 270° |
| 2026-04-16 12:39 | 48.95141 | -18.88658 | 35637 ft | 452 kts | 270° |
| 2026-04-16 12:40 | 48.95600 | -18.98190 | 35634 ft | 452 kts | 270° |
| 2026-04-16 12:40 | 48.96051 | -19.07724 | 35637 ft | 452 kts | 270° |
| 2026-04-16 12:41 | 48.96494 | -19.17270 | 35633 ft | 452 kts | 270° |
| 2026-04-16 12:41 | 48.96930 | -19.26821 | 35623 ft | 452 kts | 270° |
| 2026-04-16 12:42 | 48.97357 | -19.36374 | 35612 ft | 453 kts | 269° |
| 2026-04-16 12:42 | 48.97774 | -19.45870 | 35610 ft | 453 kts | 269° |
| 2026-04-16 12:43 | 48.98189 | -19.55495 | 35597 ft | 453 kts | 269° |
| 2026-04-16 12:43 | 48.98591 | -19.65005 | 35606 ft | 453 kts | 269° |
| 2026-04-16 12:44 | 48.98988 | -19.74576 | 35597 ft | 453 kts | 269° |
| 2026-04-16 12:44 | 48.99377 | -19.84155 | 35595 ft | 453 kts | 269° |
| 2026-04-16 12:45 | 48.99764 | -19.93739 | 35589 ft | 453 kts | 269° |
| 2026-04-16 12:45 | 48.99826 | -20.03295 | 35585 ft | 450 kts | 263° |
| 2026-04-16 12:46 | 48.99364 | -20.11168 | 35583 ft | 449 kts | 261° |
| 2026-04-16 12:46 | 48.98833 | -20.20646 | 35577 ft | 449 kts | 262° |
| 2026-04-16 12:47 | 48.98299 | -20.30135 | 35581 ft | 450 kts | 262° |
| 2026-04-16 12:47 | 48.97750 | -20.39621 | 35578 ft | 450 kts | 262° |
| 2026-04-16 12:48 | 48.97191 | -20.49109 | 35578 ft | 450 kts | 261° |
| 2026-04-16 12:48 | 48.96623 | -20.58601 | 35584 ft | 450 kts | 261° |
| 2026-04-16 12:49 | 48.96052 | -20.68018 | 35582 ft | 450 kts | 261° |
| 2026-04-16 12:49 | 48.95468 | -20.77523 | 35595 ft | 450 kts | 261° |
| 2026-04-16 12:50 | 48.94877 | -20.87007 | 35599 ft | 451 kts | 261° |
| 2026-04-16 12:50 | 48.94278 | -20.96498 | 35598 ft | 451 kts | 261° |
| 2026-04-16 12:51 | 48.93671 | -21.05987 | 35604 ft | 451 kts | 261° |
| 2026-04-16 12:51 | 48.93055 | -21.15486 | 35614 ft | 451 kts | 261° |
| 2026-04-16 12:52 | 48.92433 | -21.24973 | 35636 ft | 451 kts | 261° |
| 2026-04-16 12:52 | 48.91802 | -21.34469 | 35650 ft | 452 kts | 261° |
| 2026-04-16 12:53 | 48.91162 | -21.43971 | 35650 ft | 451 kts | 261° |
| 2026-04-16 12:53 | 48.90514 | -21.53464 | 35650 ft | 451 kts | 261° |
| 2026-04-16 12:54 | 48.89860 | -21.62942 | 35663 ft | 451 kts | 261° |
| 2026-04-16 12:54 | 48.89199 | -21.72420 | 35663 ft | 451 kts | 261° |
| 2026-04-16 12:55 | 48.88530 | -21.81888 | 35669 ft | 451 kts | 261° |
| 2026-04-16 12:55 | 48.87853 | -21.91353 | 35678 ft | 451 kts | 261° |
| 2026-04-16 12:56 | 48.87167 | -22.00835 | 35680 ft | 451 kts | 261° |
| 2026-04-16 12:56 | 48.86479 | -22.10239 | 35686 ft | 451 kts | 261° |
| 2026-04-16 12:57 | 48.85777 | -22.19715 | 35697 ft | 451 kts | 261° |
| 2026-04-16 12:57 | 48.85069 | -22.29181 | 35703 ft | 452 kts | 261° |
| 2026-04-16 12:58 | 48.84350 | -22.38666 | 35710 ft | 452 kts | 261° |
| 2026-04-16 12:58 | 48.83603 | -22.48144 | 35712 ft | 452 kts | 261° |
| 2026-04-16 12:59 | 48.82865 | -22.57626 | 35714 ft | 452 kts | 261° |
| 2026-04-16 13:00 | 48.81758 | -22.71851 | 35715 ft | 453 kts | 261° |
| 2026-04-16 13:00 | 48.81009 | -22.81338 | 35723 ft | 453 kts | 261° |
| 2026-04-16 13:01 | 48.80246 | -22.90842 | 35729 ft | 454 kts | 261° |
| 2026-04-16 13:01 | 48.79472 | -23.00356 | 35736 ft | 454 kts | 261° |
| 2026-04-16 13:02 | 48.78690 | -23.09869 | 35739 ft | 455 kts | 261° |
| 2026-04-16 13:02 | 48.77900 | -23.19372 | 35749 ft | 454 kts | 261° |
| 2026-04-16 13:03 | 48.77108 | -23.28809 | 35750 ft | 454 kts | 261° |
| 2026-04-16 13:03 | 48.76303 | -23.38310 | 35752 ft | 455 kts | 261° |
| 2026-04-16 13:04 | 48.75489 | -23.47819 | 35757 ft | 455 kts | 261° |
| 2026-04-16 13:04 | 48.74667 | -23.57315 | 35756 ft | 455 kts | 261° |
| 2026-04-16 13:05 | 48.73838 | -23.66814 | 35757 ft | 455 kts | 261° |
| 2026-04-16 13:05 | 48.73000 | -23.76316 | 35761 ft | 455 kts | 261° |
| 2026-04-16 13:06 | 48.72155 | -23.85814 | 35768 ft | 455 kts | 261° |
| 2026-04-16 13:06 | 48.71300 | -23.95317 | 35770 ft | 455 kts | 261° |
| 2026-04-16 13:07 | 48.70438 | -24.04822 | 35773 ft | 455 kts | 261° |
| 2026-04-16 13:07 | 48.69569 | -24.14315 | 35778 ft | 455 kts | 261° |
| 2026-04-16 13:08 | 48.68691 | -24.23809 | 35779 ft | 455 kts | 261° |
| 2026-04-16 13:08 | 48.67810 | -24.33254 | 35790 ft | 455 kts | 261° |
| 2026-04-16 13:09 | 48.66917 | -24.42740 | 35790 ft | 455 kts | 261° |
| 2026-04-16 13:09 | 48.66016 | -24.52222 | 35793 ft | 455 kts | 261° |
| 2026-04-16 13:10 | 48.65107 | -24.61702 | 35795 ft | 455 kts | 261° |
| 2026-04-16 13:10 | 48.64192 | -24.71167 | 35799 ft | 455 kts | 261° |
| 2026-04-16 13:11 | 48.63269 | -24.80632 | 35804 ft | 455 kts | 261° |
| 2026-04-16 13:11 | 48.62338 | -24.90091 | 35806 ft | 455 kts | 261° |
| 2026-04-16 13:12 | 48.61400 | -24.99539 | 35809 ft | 455 kts | 261° |
| 2026-04-16 13:12 | 48.60454 | -25.08989 | 35814 ft | 455 kts | 261° |
| 2026-04-16 13:13 | 48.59501 | -25.18424 | 35814 ft | 455 kts | 261° |
| 2026-04-16 13:13 | 48.58539 | -25.27867 | 35818 ft | 454 kts | 261° |
| 2026-04-16 13:14 | 48.57571 | -25.37296 | 35821 ft | 454 kts | 261° |
| 2026-04-16 13:14 | 48.56595 | -25.46721 | 35824 ft | 454 kts | 261° |
| 2026-04-16 13:15 | 48.55612 | -25.56139 | 35829 ft | 454 kts | 261° |
| 2026-04-16 13:15 | 48.54620 | -25.65560 | 35831 ft | 454 kts | 261° |
| 2026-04-16 13:16 | 48.53621 | -25.74971 | 35834 ft | 454 kts | 261° |
| 2026-04-16 13:16 | 48.52623 | -25.84306 | 35837 ft | 454 kts | 260° |
| 2026-04-16 13:17 | 48.51610 | -25.93696 | 35843 ft | 454 kts | 260° |
| 2026-04-16 13:17 | 48.50590 | -26.03085 | 35841 ft | 454 kts | 260° |
| 2026-04-16 13:18 | 48.49563 | -26.12464 | 35843 ft | 453 kts | 260° |
| 2026-04-16 13:18 | 48.48527 | -26.21843 | 35850 ft | 453 kts | 260° |
| 2026-04-16 13:19 | 48.47485 | -26.31211 | 35854 ft | 453 kts | 260° |
| 2026-04-16 13:19 | 48.46434 | -26.40583 | 35858 ft | 453 kts | 260° |
| 2026-04-16 13:20 | 48.45377 | -26.49939 | 35858 ft | 453 kts | 260° |
| 2026-04-16 13:20 | 48.44313 | -26.59292 | 35862 ft | 453 kts | 260° |
| 2026-04-16 13:21 | 48.43240 | -26.68647 | 35866 ft | 453 kts | 260° |
| 2026-04-16 13:21 | 48.42160 | -26.77995 | 35869 ft | 453 kts | 260° |
| 2026-04-16 13:22 | 48.41072 | -26.87336 | 35871 ft | 453 kts | 260° |
| 2026-04-16 13:22 | 48.39977 | -26.96679 | 35873 ft | 453 kts | 260° |
| 2026-04-16 13:23 | 48.38874 | -27.06013 | 35878 ft | 453 kts | 260° |
| 2026-04-16 13:23 | 48.37764 | -27.15341 | 35882 ft | 453 kts | 260° |
| 2026-04-16 13:24 | 48.36646 | -27.24672 | 35886 ft | 453 kts | 260° |
| 2026-04-16 13:24 | 48.35522 | -27.33988 | 35888 ft | 453 kts | 260° |
| 2026-04-16 13:25 | 48.34388 | -27.43309 | 35891 ft | 453 kts | 260° |
| 2026-04-16 13:25 | 48.33257 | -27.52553 | 35895 ft | 453 kts | 259° |
| 2026-04-16 13:26 | 48.32109 | -27.61866 | 35898 ft | 453 kts | 259° |
| 2026-04-16 13:26 | 48.30954 | -27.71170 | 35903 ft | 453 kts | 259° |
| 2026-04-16 13:27 | 48.29791 | -27.80474 | 35905 ft | 453 kts | 259° |
| 2026-04-16 13:27 | 48.28621 | -27.89768 | 35906 ft | 453 kts | 259° |
| 2026-04-16 13:28 | 48.27443 | -27.99058 | 35912 ft | 453 kts | 259° |
| 2026-04-16 13:28 | 48.26259 | -28.08339 | 35915 ft | 453 kts | 259° |
| 2026-04-16 13:29 | 48.25067 | -28.17616 | 35915 ft | 453 kts | 259° |
| 2026-04-16 13:29 | 48.23868 | -28.26889 | 35918 ft | 453 kts | 259° |
| 2026-04-16 13:30 | 48.22663 | -28.36147 | 35922 ft | 452 kts | 259° |
| 2026-04-16 13:30 | 48.21451 | -28.45394 | 35927 ft | 452 kts | 259° |
| 2026-04-16 13:31 | 48.20230 | -28.54650 | 35932 ft | 452 kts | 259° |
| 2026-04-16 13:31 | 48.19002 | -28.63895 | 35937 ft | 452 kts | 259° |
| 2026-04-16 13:32 | 48.17977 | -28.71571 | 35940 ft | 452 kts | 259° |
| 2026-04-16 13:32 | 48.16535 | -28.82299 | 35939 ft | 452 kts | 259° |
| 2026-04-16 13:33 | 48.15488 | -28.90038 | 35940 ft | 452 kts | 259° |
| 2026-04-16 13:33 | 48.14234 | -28.99249 | 35948 ft | 451 kts | 259° |
| 2026-04-16 13:34 | 48.12982 | -29.08390 | 35951 ft | 451 kts | 259° |
| 2026-04-16 13:34 | 48.11715 | -29.17589 | 35954 ft | 451 kts | 259° |
| 2026-04-16 13:35 | 48.10440 | -29.26778 | 35958 ft | 451 kts | 259° |
| 2026-04-16 13:35 | 48.09159 | -29.35960 | 35959 ft | 451 kts | 259° |
| 2026-04-16 13:36 | 48.07870 | -29.45136 | 35969 ft | 451 kts | 259° |
| 2026-04-16 13:36 | 48.06573 | -29.54316 | 35963 ft | 451 kts | 259° |
| 2026-04-16 13:37 | 48.05272 | -29.63472 | 35970 ft | 451 kts | 259° |
| 2026-04-16 13:37 | 48.03964 | -29.72632 | 35972 ft | 451 kts | 259° |
| 2026-04-16 13:38 | 48.02653 | -29.81781 | 35976 ft | 450 kts | 258° |
| 2026-04-16 13:38 | 48.01339 | -29.90910 | 36156 ft | 446 kts | 258° |
| 2026-04-16 13:38 | 48.00678 | -29.95407 | 36429 ft | 442 kts | 257° |
| 2026-04-16 13:39 | 47.99911 | -29.99842 | 36544 ft | 441 kts | 255° |
| 2026-04-16 13:39 | 47.97938 | -30.08531 | 36712 ft | 443 kts | 250° |
| 2026-04-16 13:40 | 47.95798 | -30.17144 | 36881 ft | 443 kts | 251° |
| 2026-04-16 13:40 | 47.93696 | -30.25783 | 36989 ft | 444 kts | 251° |
| 2026-04-16 13:41 | 47.91580 | -30.34466 | 36989 ft | 447 kts | 251° |
| 2026-04-16 13:41 | 47.89442 | -30.43192 | 36998 ft | 449 kts | 251° |
| 2026-04-16 13:42 | 47.87290 | -30.51937 | 37000 ft | 450 kts | 251° |
| 2026-04-16 13:42 | 47.85126 | -30.60689 | 37000 ft | 451 kts | 251° |
| 2026-04-16 13:43 | 47.82945 | -30.69460 | 37005 ft | 451 kts | 251° |
| 2026-04-16 13:43 | 47.80772 | -30.78160 | 36990 ft | 452 kts | 251° |
| 2026-04-16 13:44 | 47.78562 | -30.86968 | 36996 ft | 452 kts | 251° |
| 2026-04-16 13:44 | 47.76359 | -30.95719 | 37004 ft | 452 kts | 251° |
| 2026-04-16 13:45 | 47.74164 | -31.04403 | 37004 ft | 452 kts | 251° |
| 2026-04-16 13:45 | 47.71948 | -31.13137 | 37006 ft | 452 kts | 251° |
| 2026-04-16 13:46 | 47.69724 | -31.21871 | 37013 ft | 452 kts | 251° |
| 2026-04-16 13:46 | 47.67495 | -31.30587 | 37015 ft | 452 kts | 251° |
| 2026-04-16 13:47 | 47.65259 | -31.39299 | 37015 ft | 452 kts | 251° |
| 2026-04-16 13:47 | 47.63017 | -31.48003 | 37021 ft | 452 kts | 251° |
| 2026-04-16 13:48 | 47.60767 | -31.56703 | 37024 ft | 452 kts | 251° |
| 2026-04-16 13:48 | 47.58511 | -31.65393 | 37023 ft | 452 kts | 251° |
| 2026-04-16 13:49 | 47.56248 | -31.74081 | 37028 ft | 452 kts | 251° |
| 2026-04-16 13:49 | 47.53980 | -31.82751 | 37033 ft | 452 kts | 251° |
| 2026-04-16 13:50 | 47.51705 | -31.91417 | 37036 ft | 452 kts | 250° |
| 2026-04-16 13:50 | 47.49423 | -32.00077 | 37041 ft | 452 kts | 250° |
| 2026-04-16 13:51 | 47.47134 | -32.08732 | 37045 ft | 452 kts | 250° |
| 2026-04-16 13:51 | 47.44839 | -32.17375 | 37046 ft | 452 kts | 250° |
| 2026-04-16 13:52 | 47.42538 | -32.26011 | 37047 ft | 452 kts | 250° |
| 2026-04-16 13:52 | 47.40231 | -32.34640 | 37051 ft | 452 kts | 250° |
| 2026-04-16 13:53 | 47.37917 | -32.43259 | 37059 ft | 452 kts | 250° |
| 2026-04-16 13:53 | 47.35613 | -32.51814 | 37064 ft | 452 kts | 250° |
| 2026-04-16 13:54 | 47.33285 | -32.60423 | 37060 ft | 452 kts | 250° |
| 2026-04-16 13:54 | 47.30952 | -32.69017 | 37063 ft | 452 kts | 250° |
| 2026-04-16 13:55 | 47.28613 | -32.77605 | 37066 ft | 452 kts | 250° |
| 2026-04-16 13:55 | 47.26267 | -32.86189 | 37074 ft | 452 kts | 250° |
| 2026-04-16 13:56 | 47.23917 | -32.94756 | 37072 ft | 452 kts | 250° |
| 2026-04-16 13:56 | 47.21555 | -33.03331 | 37080 ft | 452 kts | 250° |
| 2026-04-16 13:57 | 47.19191 | -33.11889 | 37079 ft | 452 kts | 250° |
| 2026-04-16 13:57 | 47.16819 | -33.20443 | 37080 ft | 452 kts | 250° |
| 2026-04-16 13:58 | 47.13251 | -33.33253 | 37086 ft | 452 kts | 250° |
| 2026-04-16 13:58 | 47.10864 | -33.41783 | 37092 ft | 452 kts | 250° |
| 2026-04-16 13:59 | 47.08470 | -33.50310 | 37096 ft | 452 kts | 250° |
| 2026-04-16 13:59 | 47.06087 | -33.58766 | 37097 ft | 452 kts | 250° |
| 2026-04-16 14:00 | 47.03680 | -33.67278 | 37095 ft | 452 kts | 250° |
| 2026-04-16 14:00 | 47.01269 | -33.75775 | 37096 ft | 452 kts | 250° |
| 2026-04-16 14:01 | 46.98850 | -33.84268 | 37090 ft | 452 kts | 250° |
| 2026-04-16 14:01 | 46.96429 | -33.92741 | 37086 ft | 452 kts | 250° |
| 2026-04-16 14:02 | 46.93996 | -34.01223 | 37106 ft | 451 kts | 250° |
| 2026-04-16 14:02 | 46.91561 | -34.09687 | 37108 ft | 451 kts | 250° |
| 2026-04-16 14:03 | 46.89117 | -34.18152 | 37108 ft | 451 kts | 250° |
| 2026-04-16 14:03 | 46.86668 | -34.26602 | 37111 ft | 451 kts | 250° |
| 2026-04-16 14:04 | 46.84213 | -34.35048 | 37116 ft | 451 kts | 250° |
| 2026-04-16 14:04 | 46.81752 | -34.43482 | 37122 ft | 451 kts | 250° |
| 2026-04-16 14:05 | 46.79287 | -34.51901 | 37121 ft | 451 kts | 250° |
| 2026-04-16 14:05 | 46.76831 | -34.60263 | 37120 ft | 451 kts | 250° |
| 2026-04-16 14:06 | 46.74352 | -34.68672 | 37119 ft | 451 kts | 250° |
| 2026-04-16 14:06 | 46.71866 | -34.77078 | 37121 ft | 451 kts | 249° |
| 2026-04-16 14:07 | 46.69376 | -34.85468 | 37128 ft | 451 kts | 249° |
| 2026-04-16 14:07 | 46.66874 | -34.93872 | 37128 ft | 451 kts | 249° |
| 2026-04-16 14:08 | 46.64369 | -35.02254 | 37131 ft | 451 kts | 249° |
| 2026-04-16 14:08 | 46.61860 | -35.10624 | 37129 ft | 451 kts | 249° |
| 2026-04-16 14:09 | 46.59343 | -35.18992 | 37134 ft | 452 kts | 249° |
| 2026-04-16 14:09 | 46.56817 | -35.27360 | 37137 ft | 452 kts | 249° |
| 2026-04-16 14:10 | 46.54289 | -35.35708 | 37137 ft | 452 kts | 249° |
| 2026-04-16 14:10 | 46.51770 | -35.44001 | 37141 ft | 452 kts | 249° |
| 2026-04-16 14:11 | 46.49228 | -35.52340 | 37146 ft | 452 kts | 249° |
| 2026-04-16 14:11 | 46.46678 | -35.60676 | 37145 ft | 452 kts | 249° |
| 2026-04-16 14:12 | 46.44125 | -35.68996 | 37146 ft | 452 kts | 249° |
| 2026-04-16 14:12 | 46.41565 | -35.77312 | 37151 ft | 452 kts | 249° |
| 2026-04-16 14:13 | 46.38999 | -35.85621 | 37143 ft | 452 kts | 249° |
| 2026-04-16 14:13 | 46.36425 | -35.93926 | 37146 ft | 452 kts | 249° |
| 2026-04-16 14:14 | 46.33847 | -36.02218 | 37145 ft | 452 kts | 249° |
| 2026-04-16 14:14 | 46.31257 | -36.10518 | 37163 ft | 452 kts | 249° |
| 2026-04-16 14:15 | 46.28666 | -36.18799 | 37165 ft | 452 kts | 249° |
| 2026-04-16 14:15 | 46.26087 | -36.27015 | 37160 ft | 452 kts | 249° |
| 2026-04-16 14:16 | 46.23479 | -36.35292 | 37159 ft | 452 kts | 249° |
| 2026-04-16 14:16 | 46.20868 | -36.43557 | 37151 ft | 452 kts | 248° |
| 2026-04-16 14:17 | 46.18250 | -36.51813 | 37152 ft | 453 kts | 248° |
| 2026-04-16 14:17 | 46.15625 | -36.60067 | 37158 ft | 453 kts | 248° |
| 2026-04-16 14:18 | 46.12993 | -36.68316 | 37159 ft | 453 kts | 248° |
| 2026-04-16 14:18 | 46.10354 | -36.76558 | 37162 ft | 453 kts | 248° |
| 2026-04-16 14:19 | 46.07710 | -36.84793 | 37159 ft | 453 kts | 248° |
| 2026-04-16 14:19 | 46.05057 | -36.93030 | 37163 ft | 453 kts | 248° |
| 2026-04-16 14:20 | 46.02418 | -37.01193 | 37163 ft | 453 kts | 248° |
| 2026-04-16 14:20 | 45.99753 | -37.09412 | 37163 ft | 453 kts | 248° |
| 2026-04-16 14:21 | 45.97083 | -37.17624 | 37161 ft | 453 kts | 248° |
| 2026-04-16 14:21 | 45.94859 | -37.24442 | 37166 ft | 453 kts | 248° |
| 2026-04-16 14:22 | 45.92175 | -37.32648 | 37164 ft | 453 kts | 248° |
| 2026-04-16 14:22 | 45.89482 | -37.40854 | 37162 ft | 453 kts | 248° |
| 2026-04-16 14:23 | 45.86786 | -37.49045 | 37165 ft | 454 kts | 248° |
| 2026-04-16 14:23 | 45.84086 | -37.57220 | 37167 ft | 454 kts | 248° |
| 2026-04-16 14:24 | 45.81396 | -37.65341 | 37169 ft | 454 kts | 248° |
| 2026-04-16 14:24 | 45.78684 | -37.73503 | 37169 ft | 454 kts | 248° |
| 2026-04-16 14:25 | 45.75969 | -37.81648 | 37171 ft | 454 kts | 248° |
| 2026-04-16 14:25 | 45.73241 | -37.89808 | 37168 ft | 454 kts | 248° |
| 2026-04-16 14:26 | 45.70510 | -37.97950 | 37170 ft | 454 kts | 248° |
| 2026-04-16 14:26 | 45.67773 | -38.06085 | 37174 ft | 454 kts | 248° |
| 2026-04-16 14:27 | 45.65030 | -38.14214 | 37173 ft | 454 kts | 248° |
| 2026-04-16 14:27 | 45.62279 | -38.22342 | 37176 ft | 454 kts | 248° |
| 2026-04-16 14:28 | 45.59524 | -38.30455 | 37175 ft | 454 kts | 248° |
| 2026-04-16 14:28 | 45.56762 | -38.38563 | 37175 ft | 454 kts | 247° |
| 2026-04-16 14:29 | 45.53993 | -38.46669 | 37176 ft | 454 kts | 247° |
| 2026-04-16 14:29 | 45.51219 | -38.54763 | 37186 ft | 454 kts | 247° |
| 2026-04-16 14:30 | 45.48437 | -38.62857 | 37183 ft | 454 kts | 247° |
| 2026-04-16 14:30 | 45.45651 | -38.70938 | 37180 ft | 454 kts | 247° |
| 2026-04-16 14:31 | 45.42879 | -38.78953 | 37180 ft | 454 kts | 247° |
| 2026-04-16 14:31 | 45.40081 | -38.87022 | 37186 ft | 454 kts | 247° |
| 2026-04-16 14:32 | 45.37278 | -38.95077 | 37189 ft | 454 kts | 247° |
| 2026-04-16 14:32 | 45.34471 | -39.03121 | 37182 ft | 454 kts | 247° |
| 2026-04-16 14:33 | 45.31656 | -39.11163 | 37190 ft | 454 kts | 247° |
| 2026-04-16 14:33 | 45.28835 | -39.19198 | 37191 ft | 454 kts | 247° |
| 2026-04-16 14:34 | 45.26009 | -39.27224 | 37193 ft | 454 kts | 247° |
| 2026-04-16 14:34 | 45.23178 | -39.35240 | 37194 ft | 454 kts | 247° |
| 2026-04-16 14:35 | 45.20337 | -39.43261 | 37196 ft | 454 kts | 247° |
| 2026-04-16 14:35 | 45.17495 | -39.51262 | 37197 ft | 454 kts | 247° |
| 2026-04-16 14:36 | 45.14645 | -39.59261 | 37183 ft | 455 kts | 247° |
| 2026-04-16 14:36 | 45.11794 | -39.67254 | 37183 ft | 455 kts | 247° |
| 2026-04-16 14:37 | 45.08959 | -39.75182 | 37182 ft | 455 kts | 247° |
| 2026-04-16 14:37 | 45.06101 | -39.83153 | 37197 ft | 454 kts | 247° |
| 2026-04-16 14:38 | 45.03236 | -39.91119 | 37205 ft | 454 kts | 247° |
| 2026-04-16 14:38 | 45.00153 | -39.98947 | 37201 ft | 457 kts | 242° |
| 2026-04-16 14:39 | 44.96554 | -40.06313 | 37597 ft | 452 kts | 236° |
| 2026-04-16 14:39 | 44.94597 | -40.09778 | 37771 ft | 450 kts | 236° |
| 2026-04-16 14:39 | 44.92667 | -40.13246 | 37873 ft | 450 kts | 236° |
| 2026-04-16 14:40 | 44.88824 | -40.20216 | 38060 ft | 449 kts | 237° |
| 2026-04-16 14:40 | 44.84983 | -40.27171 | 38209 ft | 450 kts | 237° |
| 2026-04-16 14:41 | 44.81116 | -40.34146 | 38202 ft | 453 kts | 236° |
| 2026-04-16 14:41 | 44.77226 | -40.41135 | 38205 ft | 454 kts | 236° |
| 2026-04-16 14:42 | 44.73319 | -40.48134 | 38212 ft | 455 kts | 236° |
| 2026-04-16 14:42 | 44.69421 | -40.55099 | 38212 ft | 456 kts | 236° |
| 2026-04-16 14:43 | 44.65487 | -40.62111 | 38203 ft | 457 kts | 236° |
| 2026-04-16 14:43 | 44.61548 | -40.69116 | 38199 ft | 457 kts | 236° |
| 2026-04-16 14:44 | 44.57601 | -40.76117 | 38199 ft | 457 kts | 236° |
| 2026-04-16 14:44 | 44.53654 | -40.83103 | 38191 ft | 457 kts | 236° |
| 2026-04-16 14:45 | 44.49698 | -40.90086 | 38189 ft | 457 kts | 236° |
| 2026-04-16 14:45 | 44.45767 | -40.97011 | 38185 ft | 457 kts | 236° |
| 2026-04-16 14:46 | 44.41811 | -41.03961 | 38183 ft | 457 kts | 236° |
| 2026-04-16 14:46 | 44.37846 | -41.10909 | 38183 ft | 457 kts | 236° |
| 2026-04-16 14:47 | 44.33879 | -41.17846 | 38184 ft | 457 kts | 236° |
| 2026-04-16 14:47 | 44.29908 | -41.24773 | 38182 ft | 457 kts | 236° |
| 2026-04-16 14:48 | 44.25931 | -41.31693 | 38192 ft | 457 kts | 236° |
| 2026-04-16 14:48 | 44.21949 | -41.38605 | 38204 ft | 457 kts | 236° |
| 2026-04-16 14:49 | 44.17963 | -41.45507 | 38201 ft | 456 kts | 236° |
| 2026-04-16 14:49 | 44.13978 | -41.52392 | 38191 ft | 457 kts | 236° |
| 2026-04-16 14:50 | 44.09987 | -41.59270 | 38182 ft | 457 kts | 236° |
| 2026-04-16 14:50 | 44.05994 | -41.66136 | 38179 ft | 456 kts | 236° |
| 2026-04-16 14:51 | 44.01995 | -41.72995 | 38180 ft | 456 kts | 236° |
| 2026-04-16 14:51 | 43.97997 | -41.79837 | 38182 ft | 456 kts | 236° |
| 2026-04-16 14:53 | 43.81968 | -42.07104 | 38185 ft | 456 kts | 236° |
| 2026-04-16 14:54 | 43.77980 | -42.13848 | 38183 ft | 455 kts | 236° |
| 2026-04-16 14:54 | 43.73960 | -42.20631 | 38188 ft | 455 kts | 236° |
| 2026-04-16 14:55 | 43.69942 | -42.27395 | 38186 ft | 455 kts | 236° |
| 2026-04-16 14:55 | 43.65918 | -42.34153 | 38196 ft | 455 kts | 236° |
| 2026-04-16 14:56 | 43.61891 | -42.40898 | 38189 ft | 455 kts | 236° |
| 2026-04-16 14:56 | 43.57859 | -42.47639 | 38182 ft | 455 kts | 237° |
| 2026-04-16 14:57 | 43.53828 | -42.54361 | 38186 ft | 454 kts | 237° |
| 2026-04-16 14:57 | 43.49821 | -42.61028 | 38184 ft | 454 kts | 237° |
| 2026-04-16 14:58 | 43.43743 | -42.71112 | 38183 ft | 454 kts | 237° |
| 2026-04-16 14:59 | 43.39736 | -42.77740 | 38178 ft | 454 kts | 237° |
| 2026-04-16 14:59 | 43.35697 | -42.84408 | 38181 ft | 454 kts | 237° |
| 2026-04-16 15:00 | 43.31656 | -42.91062 | 38179 ft | 454 kts | 237° |
| 2026-04-16 15:00 | 43.27605 | -42.97718 | 38180 ft | 454 kts | 237° |
| 2026-04-16 15:01 | 43.23554 | -43.04357 | 38178 ft | 453 kts | 237° |
| 2026-04-16 15:01 | 43.19503 | -43.10983 | 38179 ft | 453 kts | 237° |
| 2026-04-16 15:02 | 43.15478 | -43.17552 | 38182 ft | 453 kts | 237° |
| 2026-04-16 15:02 | 43.11421 | -43.24157 | 38180 ft | 453 kts | 237° |
| 2026-04-16 15:03 | 43.07366 | -43.30746 | 38176 ft | 453 kts | 237° |
| 2026-04-16 15:03 | 43.03302 | -43.37334 | 38179 ft | 453 kts | 237° |
| 2026-04-16 15:04 | 42.99238 | -43.43905 | 38175 ft | 453 kts | 237° |
| 2026-04-16 15:04 | 42.95171 | -43.50469 | 38178 ft | 452 kts | 237° |
| 2026-04-16 15:05 | 42.91099 | -43.57023 | 38177 ft | 452 kts | 237° |
| 2026-04-16 15:05 | 42.87025 | -43.63568 | 38173 ft | 452 kts | 237° |
| 2026-04-16 15:06 | 42.82949 | -43.70100 | 38172 ft | 452 kts | 237° |
| 2026-04-16 15:06 | 42.78870 | -43.76622 | 38159 ft | 452 kts | 237° |
| 2026-04-16 15:07 | 42.74787 | -43.83138 | 38147 ft | 453 kts | 237° |
| 2026-04-16 15:07 | 42.70699 | -43.89646 | 38150 ft | 453 kts | 237° |
| 2026-04-16 15:08 | 42.66634 | -43.96105 | 38157 ft | 453 kts | 237° |
| 2026-04-16 15:08 | 42.62534 | -44.02604 | 38151 ft | 453 kts | 237° |
| 2026-04-16 15:09 | 42.58433 | -44.09090 | 38160 ft | 453 kts | 237° |
| 2026-04-16 15:09 | 42.54320 | -44.15582 | 38155 ft | 453 kts | 237° |
| 2026-04-16 15:10 | 42.50203 | -44.22065 | 38157 ft | 454 kts | 237° |
| 2026-04-16 15:10 | 42.46080 | -44.28542 | 38155 ft | 454 kts | 237° |
| 2026-04-16 15:11 | 42.42652 | -44.33918 | 38163 ft | 454 kts | 237° |
| 2026-04-16 15:11 | 42.37848 | -44.41433 | 38161 ft | 454 kts | 237° |
| 2026-04-16 15:12 | 42.34387 | -44.46837 | 38176 ft | 454 kts | 237° |
| 2026-04-16 15:12 | 42.30249 | -44.53283 | 38166 ft | 453 kts | 237° |
| 2026-04-16 15:13 | 42.26140 | -44.59670 | 38167 ft | 453 kts | 237° |
| 2026-04-16 15:13 | 42.22008 | -44.66080 | 38166 ft | 453 kts | 237° |
| 2026-04-16 15:14 | 42.17875 | -44.72476 | 38170 ft | 452 kts | 237° |
| 2026-04-16 15:14 | 42.13741 | -44.78863 | 38163 ft | 452 kts | 237° |
| 2026-04-16 15:15 | 42.09611 | -44.85231 | 38172 ft | 451 kts | 237° |
| 2026-04-16 15:15 | 42.05485 | -44.91586 | 38169 ft | 450 kts | 237° |
| 2026-04-16 15:16 | 42.01362 | -44.97921 | 38170 ft | 450 kts | 237° |
| 2026-04-16 15:16 | 41.97386 | -45.04347 | 38170 ft | 444 kts | 241° |
| 2026-04-16 15:17 | 41.93783 | -45.11059 | 38164 ft | 442 kts | 242° |
| 2026-04-16 15:17 | 41.90155 | -45.17730 | 38166 ft | 443 kts | 242° |
| 2026-04-16 15:18 | 41.86505 | -45.24318 | 38162 ft | 443 kts | 241° |
| 2026-04-16 15:18 | 41.82819 | -45.30928 | 38158 ft | 443 kts | 241° |
| 2026-04-16 15:19 | 41.79127 | -45.37532 | 38156 ft | 442 kts | 241° |
| 2026-04-16 15:19 | 41.75435 | -45.44124 | 38155 ft | 442 kts | 241° |
| 2026-04-16 15:20 | 41.71740 | -45.50709 | 38165 ft | 442 kts | 241° |
| 2026-04-16 15:20 | 41.68042 | -45.57283 | 38166 ft | 441 kts | 241° |
| 2026-04-16 15:21 | 41.64342 | -45.63847 | 38166 ft | 441 kts | 241° |
| 2026-04-16 15:21 | 41.60645 | -45.70392 | 38152 ft | 442 kts | 241° |
| 2026-04-16 15:22 | 41.56937 | -45.76941 | 38145 ft | 442 kts | 241° |
| 2026-04-16 15:22 | 41.53231 | -45.83475 | 38139 ft | 441 kts | 241° |
| 2026-04-16 15:23 | 41.49545 | -45.89960 | 38143 ft | 441 kts | 241° |
| 2026-04-16 15:23 | 41.45830 | -45.96479 | 38143 ft | 441 kts | 241° |
| 2026-04-16 15:24 | 41.42112 | -46.02991 | 38140 ft | 441 kts | 241° |
| 2026-04-16 15:24 | 41.38388 | -46.09499 | 38137 ft | 441 kts | 241° |
| 2026-04-16 15:25 | 41.34662 | -46.15996 | 38134 ft | 441 kts | 241° |
| 2026-04-16 15:25 | 41.30937 | -46.22478 | 38134 ft | 441 kts | 240° |
| 2026-04-16 15:26 | 41.27207 | -46.28957 | 38132 ft | 441 kts | 240° |
| 2026-04-16 15:26 | 41.23472 | -46.35429 | 38132 ft | 441 kts | 241° |
| 2026-04-16 15:27 | 41.19739 | -46.41884 | 38145 ft | 440 kts | 241° |
| 2026-04-16 15:27 | 41.16002 | -46.48333 | 38139 ft | 440 kts | 241° |
| 2026-04-16 15:28 | 41.12289 | -46.54727 | 38132 ft | 440 kts | 241° |
| 2026-04-16 15:28 | 41.08543 | -46.61164 | 38121 ft | 440 kts | 241° |
| 2026-04-16 15:29 | 41.04800 | -46.67581 | 38126 ft | 440 kts | 241° |
| 2026-04-16 15:29 | 41.01061 | -46.73980 | 38122 ft | 439 kts | 241° |
| 2026-04-16 15:30 | 40.97314 | -46.80380 | 38120 ft | 439 kts | 241° |
| 2026-04-16 15:30 | 40.93569 | -46.86761 | 38120 ft | 439 kts | 241° |
| 2026-04-16 15:31 | 40.89839 | -46.93104 | 38119 ft | 439 kts | 241° |
| 2026-04-16 15:31 | 40.86088 | -46.99471 | 38117 ft | 439 kts | 241° |
| 2026-04-16 15:32 | 40.82333 | -47.05831 | 38108 ft | 439 kts | 241° |
| 2026-04-16 15:32 | 40.78573 | -47.12186 | 38107 ft | 439 kts | 241° |
| 2026-04-16 15:33 | 40.74808 | -47.18536 | 38105 ft | 439 kts | 241° |
| 2026-04-16 15:33 | 40.71036 | -47.24886 | 38103 ft | 440 kts | 241° |
| 2026-04-16 15:34 | 40.67257 | -47.31235 | 38102 ft | 440 kts | 241° |
| 2026-04-16 15:34 | 40.63472 | -47.37579 | 38094 ft | 440 kts | 241° |
| 2026-04-16 15:35 | 40.59682 | -47.43919 | 38092 ft | 441 kts | 241° |
| 2026-04-16 15:35 | 40.55912 | -47.50214 | 38089 ft | 441 kts | 241° |
| 2026-04-16 15:36 | 40.52080 | -47.56599 | 38088 ft | 442 kts | 241° |
| 2026-04-16 15:36 | 40.48290 | -47.62900 | 38086 ft | 443 kts | 241° |
| 2026-04-16 15:37 | 40.44464 | -47.69249 | 38073 ft | 443 kts | 241° |
| 2026-04-16 15:37 | 40.40630 | -47.75597 | 38088 ft | 444 kts | 241° |
| 2026-04-16 15:38 | 40.36782 | -47.81955 | 38076 ft | 445 kts | 241° |
| 2026-04-16 15:38 | 40.32930 | -47.88308 | 38069 ft | 446 kts | 240° |
| 2026-04-16 15:39 | 40.29067 | -47.94666 | 38070 ft | 446 kts | 240° |
| 2026-04-16 15:39 | 40.25191 | -48.01032 | 38064 ft | 447 kts | 240° |
| 2026-04-16 15:40 | 40.21306 | -48.07400 | 38059 ft | 448 kts | 240° |
| 2026-04-16 15:40 | 40.17411 | -48.13770 | 38064 ft | 449 kts | 240° |
| 2026-04-16 15:41 | 40.13502 | -48.20151 | 38058 ft | 450 kts | 240° |
| 2026-04-16 15:41 | 40.09584 | -48.26532 | 38056 ft | 450 kts | 240° |
| 2026-04-16 15:42 | 40.05659 | -48.32912 | 38051 ft | 451 kts | 240° |
| 2026-04-16 15:42 | 40.01724 | -48.39299 | 38060 ft | 452 kts | 240° |
| 2026-04-16 15:43 | 39.97781 | -48.45691 | 38067 ft | 452 kts | 240° |
| 2026-04-16 15:43 | 39.93857 | -48.52034 | 38071 ft | 453 kts | 240° |
| 2026-04-16 15:44 | 39.89888 | -48.58420 | 38075 ft | 453 kts | 240° |
| 2026-04-16 15:44 | 39.85917 | -48.64809 | 38070 ft | 454 kts | 240° |
| 2026-04-16 15:45 | 39.81939 | -48.71199 | 38060 ft | 454 kts | 240° |
| 2026-04-16 15:45 | 39.77952 | -48.77589 | 38063 ft | 455 kts | 239° |
| 2026-04-16 15:46 | 39.73963 | -48.83970 | 38066 ft | 455 kts | 239° |
| 2026-04-16 15:46 | 39.69964 | -48.90355 | 38069 ft | 455 kts | 239° |
| 2026-04-16 15:47 | 39.65960 | -48.96734 | 38070 ft | 456 kts | 239° |
| 2026-04-16 15:47 | 39.61949 | -49.03110 | 38077 ft | 456 kts | 239° |
| 2026-04-16 15:48 | 39.57954 | -49.09449 | 38072 ft | 457 kts | 239° |
| 2026-04-16 15:48 | 39.53928 | -49.15823 | 38069 ft | 457 kts | 239° |
| 2026-04-16 15:49 | 39.49894 | -49.22198 | 38076 ft | 458 kts | 239° |
| 2026-04-16 15:49 | 39.45852 | -49.28572 | 38085 ft | 458 kts | 239° |
| 2026-04-16 15:50 | 39.41803 | -49.34943 | 38090 ft | 458 kts | 239° |
| 2026-04-16 15:50 | 39.37752 | -49.41305 | 38100 ft | 458 kts | 238° |
| 2026-04-16 15:51 | 39.33697 | -49.47662 | 38101 ft | 458 kts | 238° |
| 2026-04-16 15:51 | 39.29638 | -49.54012 | 38102 ft | 458 kts | 238° |
| 2026-04-16 15:52 | 39.25572 | -49.60359 | 38106 ft | 458 kts | 238° |
| 2026-04-16 15:52 | 39.21504 | -49.66699 | 38102 ft | 459 kts | 238° |
| 2026-04-16 15:53 | 39.17433 | -49.73028 | 38109 ft | 459 kts | 238° |
| 2026-04-16 15:53 | 39.13381 | -49.79317 | 38115 ft | 459 kts | 238° |
| 2026-04-16 15:54 | 39.09299 | -49.85639 | 38115 ft | 459 kts | 238° |
| 2026-04-16 15:54 | 39.05207 | -49.91965 | 38124 ft | 460 kts | 238° |
| 2026-04-16 15:55 | 39.01104 | -49.98295 | 38138 ft | 461 kts | 238° |
| 2026-04-16 15:55 | 38.97070 | -50.04686 | 38125 ft | 459 kts | 240° |
| 2026-04-16 15:56 | 38.93189 | -50.11200 | 38112 ft | 459 kts | 240° |
| 2026-04-16 15:56 | 38.89291 | -50.17717 | 38119 ft | 460 kts | 240° |
| 2026-04-16 15:57 | 38.85365 | -50.24229 | 38116 ft | 461 kts | 240° |
| 2026-04-16 15:57 | 38.81433 | -50.30732 | 38134 ft | 462 kts | 240° |
| 2026-04-16 15:58 | 38.77489 | -50.37241 | 38138 ft | 462 kts | 240° |
| 2026-04-16 15:58 | 38.73541 | -50.43745 | 38138 ft | 463 kts | 239° |
| 2026-04-16 15:59 | 38.67608 | -50.53493 | 38144 ft | 463 kts | 239° |
| 2026-04-16 15:59 | 38.64307 | -50.58903 | 38144 ft | 463 kts | 239° |
| 2026-04-16 16:00 | 38.60338 | -50.65393 | 38144 ft | 464 kts | 239° |
| 2026-04-16 16:00 | 38.56360 | -50.71878 | 38153 ft | 464 kts | 239° |
| 2026-04-16 16:01 | 38.52375 | -50.78363 | 38151 ft | 464 kts | 239° |
| 2026-04-16 16:01 | 38.48388 | -50.84840 | 38150 ft | 464 kts | 239° |
| 2026-04-16 16:02 | 38.44393 | -50.91318 | 38175 ft | 464 kts | 239° |
| 2026-04-16 16:02 | 38.40397 | -50.97780 | 38178 ft | 464 kts | 238° |
| 2026-04-16 16:03 | 38.36394 | -51.04242 | 38176 ft | 465 kts | 238° |
| 2026-04-16 16:03 | 38.32410 | -51.10661 | 38177 ft | 465 kts | 238° |
| 2026-04-16 16:04 | 38.28399 | -51.17111 | 38177 ft | 465 kts | 238° |
| 2026-04-16 16:04 | 38.24371 | -51.23573 | 38174 ft | 465 kts | 238° |
| 2026-04-16 16:05 | 38.20343 | -51.30025 | 38175 ft | 465 kts | 238° |
| 2026-04-16 16:05 | 38.16314 | -51.36464 | 38186 ft | 465 kts | 238° |
| 2026-04-16 16:06 | 38.12280 | -51.42899 | 38185 ft | 466 kts | 238° |
| 2026-04-16 16:06 | 38.08240 | -51.49332 | 38183 ft | 466 kts | 238° |
| 2026-04-16 16:07 | 38.04194 | -51.55760 | 38182 ft | 466 kts | 237° |
| 2026-04-16 16:07 | 38.00146 | -51.62180 | 38178 ft | 466 kts | 237° |
| 2026-04-16 16:08 | 37.96089 | -51.68600 | 38189 ft | 467 kts | 237° |
| 2026-04-16 16:08 | 37.92030 | -51.75012 | 38188 ft | 467 kts | 237° |
| 2026-04-16 16:09 | 37.87958 | -51.81432 | 38194 ft | 467 kts | 237° |
| 2026-04-16 16:09 | 37.83882 | -51.87845 | 38193 ft | 468 kts | 237° |
| 2026-04-16 16:10 | 37.79798 | -51.94259 | 38197 ft | 468 kts | 237° |
| 2026-04-16 16:10 | 37.75702 | -52.00678 | 38192 ft | 469 kts | 237° |
| 2026-04-16 16:11 | 37.71632 | -52.07045 | 38198 ft | 469 kts | 237° |
| 2026-04-16 16:11 | 37.67527 | -52.13453 | 38203 ft | 470 kts | 237° |
| 2026-04-16 16:12 | 37.63413 | -52.19864 | 38205 ft | 470 kts | 237° |
| 2026-04-16 16:12 | 37.59294 | -52.26269 | 38203 ft | 471 kts | 237° |
| 2026-04-16 16:13 | 37.55165 | -52.32677 | 38204 ft | 471 kts | 237° |
| 2026-04-16 16:13 | 37.51029 | -52.39084 | 38206 ft | 472 kts | 236° |
| 2026-04-16 16:14 | 37.46886 | -52.45490 | 38206 ft | 472 kts | 236° |
| 2026-04-16 16:14 | 37.42734 | -52.51896 | 38205 ft | 473 kts | 236° |
| 2026-04-16 16:15 | 37.38565 | -52.58316 | 38214 ft | 473 kts | 236° |
| 2026-04-16 16:15 | 37.34400 | -52.64718 | 38214 ft | 474 kts | 236° |
| 2026-04-16 16:16 | 37.30222 | -52.71127 | 38221 ft | 474 kts | 236° |
| 2026-04-16 16:16 | 37.26067 | -52.77487 | 38217 ft | 474 kts | 236° |
| 2026-04-16 16:17 | 37.21882 | -52.83883 | 38220 ft | 474 kts | 236° |
| 2026-04-16 16:17 | 37.17686 | -52.90283 | 38225 ft | 475 kts | 236° |
| 2026-04-16 16:18 | 37.13488 | -52.96672 | 38230 ft | 475 kts | 235° |
| 2026-04-16 16:18 | 37.09282 | -53.03063 | 38227 ft | 475 kts | 235° |
| 2026-04-16 16:19 | 37.05075 | -53.09444 | 38229 ft | 475 kts | 235° |
| 2026-04-16 16:19 | 37.00861 | -53.15821 | 38229 ft | 476 kts | 235° |
| 2026-04-16 16:20 | 36.96641 | -53.22195 | 38233 ft | 476 kts | 235° |
| 2026-04-16 16:20 | 36.92418 | -53.28562 | 38230 ft | 476 kts | 235° |
| 2026-04-16 16:21 | 36.88184 | -53.34934 | 38235 ft | 476 kts | 234° |
| 2026-04-16 16:21 | 36.83949 | -53.41295 | 38233 ft | 476 kts | 234° |
| 2026-04-16 16:22 | 36.79734 | -53.47614 | 38238 ft | 477 kts | 234° |
| 2026-04-16 16:22 | 36.75491 | -53.53962 | 38238 ft | 477 kts | 234° |
| 2026-04-16 16:23 | 36.71241 | -53.60309 | 38242 ft | 477 kts | 234° |
| 2026-04-16 16:23 | 36.66985 | -53.66652 | 38255 ft | 477 kts | 234° |
| 2026-04-16 16:24 | 36.62725 | -53.72990 | 38256 ft | 477 kts | 234° |
| 2026-04-16 16:24 | 36.58456 | -53.79331 | 38240 ft | 477 kts | 234° |
| 2026-04-16 16:25 | 36.54187 | -53.85657 | 38232 ft | 477 kts | 234° |
| 2026-04-16 16:25 | 36.49914 | -53.91977 | 38231 ft | 478 kts | 234° |
| 2026-04-16 16:26 | 36.45640 | -53.98288 | 38254 ft | 477 kts | 233° |
| 2026-04-16 16:26 | 36.41363 | -54.04591 | 38255 ft | 477 kts | 233° |
| 2026-04-16 16:27 | 36.37082 | -54.10889 | 38254 ft | 477 kts | 233° |
| 2026-04-16 16:27 | 36.32800 | -54.17177 | 38253 ft | 477 kts | 233° |
| 2026-04-16 16:28 | 36.28514 | -54.23458 | 38258 ft | 477 kts | 233° |
| 2026-04-16 16:28 | 36.24258 | -54.29683 | 38263 ft | 477 kts | 233° |
| 2026-04-16 16:29 | 36.19965 | -54.35951 | 38252 ft | 477 kts | 233° |
| 2026-04-16 16:29 | 36.15672 | -54.42208 | 38263 ft | 477 kts | 233° |
| 2026-04-16 16:30 | 36.11376 | -54.48457 | 38258 ft | 477 kts | 233° |
| 2026-04-16 16:30 | 36.07074 | -54.54704 | 38254 ft | 477 kts | 233° |
| 2026-04-16 16:31 | 36.02768 | -54.60944 | 38264 ft | 477 kts | 233° |
| 2026-04-16 16:31 | 35.98457 | -54.67180 | 38265 ft | 477 kts | 233° |
| 2026-04-16 16:32 | 35.94145 | -54.73406 | 38263 ft | 477 kts | 233° |
| 2026-04-16 16:32 | 35.89827 | -54.79630 | 38262 ft | 477 kts | 233° |
| 2026-04-16 16:33 | 35.85509 | -54.85842 | 38261 ft | 477 kts | 232° |
| 2026-04-16 16:33 | 35.81209 | -54.92017 | 38260 ft | 477 kts | 232° |
| 2026-04-16 16:34 | 35.76880 | -54.98222 | 38266 ft | 477 kts | 232° |
| 2026-04-16 16:34 | 35.72547 | -55.04423 | 38264 ft | 478 kts | 232° |
| 2026-04-16 16:35 | 35.68212 | -55.10614 | 38263 ft | 478 kts | 232° |
| 2026-04-16 16:35 | 35.63870 | -55.16803 | 38266 ft | 478 kts | 232° |
| 2026-04-16 16:36 | 35.59526 | -55.22986 | 38269 ft | 478 kts | 232° |
| 2026-04-16 16:36 | 35.55173 | -55.29168 | 38262 ft | 478 kts | 232° |
| 2026-04-16 16:37 | 35.50816 | -55.35346 | 38263 ft | 478 kts | 232° |
| 2026-04-16 16:37 | 35.46460 | -55.41521 | 38268 ft | 479 kts | 231° |
| 2026-04-16 16:38 | 35.42074 | -55.47713 | 38274 ft | 482 kts | 231° |
| 2026-04-16 16:38 | 35.37655 | -55.53942 | 38276 ft | 485 kts | 231° |
| 2026-04-16 16:39 | 35.33256 | -55.60133 | 38269 ft | 486 kts | 231° |
| 2026-04-16 16:39 | 35.28808 | -55.66382 | 38280 ft | 487 kts | 230° |
| 2026-04-16 16:40 | 35.24356 | -55.72627 | 38275 ft | 487 kts | 230° |
| 2026-04-16 16:40 | 35.19893 | -55.78875 | 38273 ft | 488 kts | 230° |
| 2026-04-16 16:41 | 35.15430 | -55.85112 | 38277 ft | 488 kts | 230° |
| 2026-04-16 16:41 | 35.10959 | -55.91349 | 38278 ft | 488 kts | 230° |
| 2026-04-16 16:42 | 35.06484 | -55.97580 | 38278 ft | 488 kts | 230° |
| 2026-04-16 16:42 | 35.02009 | -56.03800 | 38276 ft | 488 kts | 230° |
| 2026-04-16 16:43 | 34.97529 | -56.10015 | 38280 ft | 488 kts | 230° |
| 2026-04-16 16:43 | 34.93046 | -56.16225 | 38280 ft | 488 kts | 230° |
| 2026-04-16 16:44 | 34.88555 | -56.22433 | 38277 ft | 488 kts | 230° |
| 2026-04-16 16:44 | 34.84065 | -56.28630 | 38278 ft | 488 kts | 230° |
| 2026-04-16 16:45 | 34.79599 | -56.34782 | 38281 ft | 488 kts | 230° |
| 2026-04-16 16:45 | 34.75096 | -56.40972 | 38278 ft | 488 kts | 230° |
| 2026-04-16 16:46 | 34.70598 | -56.47147 | 38280 ft | 488 kts | 230° |
| 2026-04-16 16:46 | 34.66087 | -56.53328 | 38281 ft | 488 kts | 229° |
| 2026-04-16 16:47 | 34.61577 | -56.59496 | 38283 ft | 488 kts | 229° |
| 2026-04-16 16:47 | 34.57061 | -56.65662 | 38283 ft | 488 kts | 229° |
| 2026-04-16 16:48 | 34.52542 | -56.71820 | 38287 ft | 488 kts | 229° |
| 2026-04-16 16:48 | 34.48784 | -56.76935 | 38288 ft | 488 kts | 229° |
| 2026-04-16 16:49 | 34.44261 | -56.83078 | 38283 ft | 488 kts | 229° |
| 2026-04-16 16:49 | 34.39737 | -56.89212 | 38288 ft | 488 kts | 229° |
| 2026-04-16 16:50 | 34.35211 | -56.95340 | 38287 ft | 488 kts | 229° |
| 2026-04-16 16:50 | 34.30679 | -57.01464 | 38286 ft | 488 kts | 229° |
| 2026-04-16 16:51 | 34.26145 | -57.07579 | 38286 ft | 488 kts | 229° |
| 2026-04-16 16:51 | 34.21611 | -57.13685 | 38291 ft | 488 kts | 229° |
| 2026-04-16 16:52 | 34.17098 | -57.19752 | 38288 ft | 488 kts | 229° |
| 2026-04-16 16:52 | 34.12557 | -57.25847 | 38284 ft | 488 kts | 229° |
| 2026-04-16 16:53 | 34.08005 | -57.31945 | 38283 ft | 489 kts | 229° |
| 2026-04-16 16:53 | 34.03453 | -57.38032 | 38284 ft | 489 kts | 229° |
| 2026-04-16 16:54 | 33.98886 | -57.44128 | 38283 ft | 489 kts | 229° |
| 2026-04-16 16:54 | 33.94320 | -57.50214 | 38285 ft | 490 kts | 229° |
| 2026-04-16 16:55 | 33.89748 | -57.56296 | 38284 ft | 490 kts | 229° |
| 2026-04-16 16:55 | 33.85169 | -57.62377 | 38289 ft | 490 kts | 229° |
| 2026-04-16 16:56 | 33.80594 | -57.68442 | 38284 ft | 490 kts | 229° |
| 2026-04-16 16:56 | 33.76016 | -57.74502 | 38289 ft | 489 kts | 229° |
| 2026-04-16 16:57 | 33.69147 | -57.83574 | 38285 ft | 489 kts | 229° |
| 2026-04-16 16:58 | 33.64596 | -57.89572 | 38286 ft | 489 kts | 229° |
| 2026-04-16 16:58 | 33.59984 | -57.95640 | 38285 ft | 489 kts | 229° |
| 2026-04-16 16:59 | 33.55428 | -58.01624 | 38288 ft | 489 kts | 229° |
| 2026-04-16 16:59 | 33.50840 | -58.07639 | 38282 ft | 489 kts | 229° |
| 2026-04-16 17:00 | 33.46248 | -58.13650 | 38280 ft | 489 kts | 229° |
| 2026-04-16 17:00 | 33.41650 | -58.19658 | 38283 ft | 489 kts | 228° |
| 2026-04-16 17:01 | 33.37048 | -58.25663 | 38281 ft | 489 kts | 228° |
| 2026-04-16 17:01 | 33.32442 | -58.31661 | 38282 ft | 489 kts | 228° |
| 2026-04-16 17:02 | 33.27834 | -58.37651 | 38277 ft | 489 kts | 228° |
| 2026-04-16 17:02 | 33.23222 | -58.43638 | 38279 ft | 490 kts | 227° |
| 2026-04-16 17:03 | 33.18606 | -58.49621 | 38278 ft | 490 kts | 227° |
| 2026-04-16 17:03 | 33.13982 | -58.55602 | 38281 ft | 490 kts | 227° |
| 2026-04-16 17:04 | 33.09382 | -58.61543 | 38283 ft | 490 kts | 227° |
| 2026-04-16 17:04 | 33.04757 | -58.67505 | 38282 ft | 490 kts | 227° |
| 2026-04-16 17:05 | 33.00113 | -58.73482 | 38279 ft | 491 kts | 226° |
| 2026-04-16 17:05 | 32.95470 | -58.79448 | 38273 ft | 491 kts | 226° |
| 2026-04-16 17:06 | 32.90822 | -58.85411 | 38266 ft | 491 kts | 226° |
| 2026-04-16 17:06 | 32.86168 | -58.91371 | 38271 ft | 492 kts | 226° |
| 2026-04-16 17:07 | 32.81508 | -58.97329 | 38274 ft | 492 kts | 226° |
| 2026-04-16 17:07 | 32.76865 | -59.03256 | 38271 ft | 493 kts | 226° |
| 2026-04-16 17:08 | 32.72188 | -59.09217 | 38268 ft | 493 kts | 226° |
| 2026-04-16 17:08 | 32.67500 | -59.15183 | 38267 ft | 494 kts | 226° |
| 2026-04-16 17:09 | 32.62802 | -59.21150 | 38268 ft | 494 kts | 226° |
| 2026-04-16 17:09 | 32.58102 | -59.27111 | 38271 ft | 495 kts | 225° |
| 2026-04-16 17:10 | 32.53389 | -59.33078 | 38267 ft | 496 kts | 225° |
| 2026-04-16 17:10 | 32.48701 | -59.39003 | 38274 ft | 496 kts | 225° |
| 2026-04-16 17:11 | 32.43978 | -59.44963 | 38274 ft | 496 kts | 225° |
| 2026-04-16 17:11 | 32.39250 | -59.50919 | 38276 ft | 496 kts | 225° |
| 2026-04-16 17:12 | 32.34518 | -59.56871 | 38274 ft | 497 kts | 225° |
| 2026-04-16 17:12 | 32.29776 | -59.62829 | 38270 ft | 497 kts | 225° |
| 2026-04-16 17:13 | 32.25040 | -59.68772 | 38271 ft | 497 kts | 225° |
| 2026-04-16 17:13 | 32.20300 | -59.74711 | 38278 ft | 497 kts | 225° |
| 2026-04-16 17:14 | 32.15562 | -59.80639 | 38276 ft | 496 kts | 225° |
| 2026-04-16 17:14 | 32.10823 | -59.86556 | 38274 ft | 495 kts | 225° |
| 2026-04-16 17:15 | 32.06106 | -59.92439 | 38269 ft | 494 kts | 225° |
| 2026-04-16 17:15 | 32.01384 | -59.98317 | 38268 ft | 494 kts | 225° |
| 2026-04-16 17:16 | 31.96804 | -60.04337 | 38270 ft | 493 kts | 230° |
| 2026-04-16 17:16 | 31.92558 | -60.10675 | 38273 ft | 493 kts | 231° |
| 2026-04-16 17:17 | 31.88293 | -60.16977 | 38272 ft | 492 kts | 230° |
| 2026-04-16 17:17 | 31.84000 | -60.23225 | 38272 ft | 491 kts | 230° |
| 2026-04-16 17:18 | 31.79704 | -60.29452 | 38264 ft | 490 kts | 230° |
| 2026-04-16 17:18 | 31.75417 | -60.35654 | 38268 ft | 489 kts | 231° |
| 2026-04-16 17:19 | 31.71131 | -60.41848 | 38263 ft | 488 kts | 231° |
| 2026-04-16 17:19 | 31.66846 | -60.48030 | 38263 ft | 487 kts | 231° |
| 2026-04-16 17:20 | 31.62590 | -60.54155 | 38257 ft | 487 kts | 231° |
| 2026-04-16 17:20 | 31.58310 | -60.60303 | 38254 ft | 487 kts | 231° |
| 2026-04-16 17:21 | 31.54021 | -60.66454 | 38255 ft | 486 kts | 231° |
| 2026-04-16 17:21 | 31.49739 | -60.72585 | 38258 ft | 486 kts | 231° |
| 2026-04-16 17:22 | 31.45456 | -60.78708 | 38256 ft | 486 kts | 231° |
| 2026-04-16 17:22 | 31.41171 | -60.84822 | 38259 ft | 485 kts | 231° |
| 2026-04-16 17:23 | 31.36887 | -60.90925 | 38261 ft | 485 kts | 231° |
| 2026-04-16 17:23 | 31.32637 | -60.96971 | 38260 ft | 484 kts | 231° |
| 2026-04-16 17:24 | 31.28331 | -61.03088 | 38258 ft | 484 kts | 231° |
| 2026-04-16 17:24 | 31.24054 | -61.09153 | 38254 ft | 483 kts | 231° |
| 2026-04-16 17:25 | 31.19807 | -61.15167 | 38257 ft | 483 kts | 231° |
| 2026-04-16 17:25 | 31.15527 | -61.21218 | 38253 ft | 483 kts | 231° |
| 2026-04-16 17:26 | 31.11247 | -61.27260 | 38250 ft | 483 kts | 231° |
| 2026-04-16 17:26 | 31.06965 | -61.33293 | 38249 ft | 483 kts | 231° |
| 2026-04-16 17:27 | 31.02682 | -61.39321 | 38255 ft | 483 kts | 231° |
| 2026-04-16 17:27 | 30.98393 | -61.45346 | 38253 ft | 482 kts | 231° |
| 2026-04-16 17:28 | 30.94108 | -61.51358 | 38255 ft | 482 kts | 231° |
| 2026-04-16 17:28 | 30.89818 | -61.57367 | 38253 ft | 482 kts | 231° |
| 2026-04-16 17:29 | 30.85528 | -61.63365 | 38248 ft | 482 kts | 231° |
| 2026-04-16 17:29 | 30.81235 | -61.69360 | 38248 ft | 482 kts | 231° |
| 2026-04-16 17:30 | 30.76942 | -61.75346 | 38249 ft | 482 kts | 231° |
| 2026-04-16 17:30 | 30.72649 | -61.81322 | 38250 ft | 481 kts | 231° |
| 2026-04-16 17:31 | 30.68351 | -61.87295 | 38251 ft | 481 kts | 231° |
| 2026-04-16 17:31 | 30.64051 | -61.93263 | 38246 ft | 481 kts | 231° |
| 2026-04-16 17:32 | 30.59753 | -61.99219 | 38245 ft | 481 kts | 231° |
| 2026-04-16 17:32 | 30.55449 | -62.05174 | 38248 ft | 481 kts | 231° |
| 2026-04-16 17:33 | 30.51172 | -62.11082 | 38244 ft | 481 kts | 231° |
| 2026-04-16 17:33 | 30.46860 | -62.17030 | 38244 ft | 481 kts | 231° |
| 2026-04-16 17:34 | 30.42553 | -62.22963 | 38247 ft | 481 kts | 231° |
| 2026-04-16 17:34 | 30.38235 | -62.28901 | 38246 ft | 481 kts | 231° |
| 2026-04-16 17:35 | 30.33917 | -62.34831 | 38242 ft | 482 kts | 231° |
| 2026-04-16 17:35 | 30.29595 | -62.40757 | 38243 ft | 482 kts | 231° |
| 2026-04-16 17:36 | 30.25267 | -62.46683 | 38240 ft | 482 kts | 231° |
| 2026-04-16 17:36 | 30.20934 | -62.52606 | 38241 ft | 482 kts | 231° |
| 2026-04-16 17:37 | 30.16598 | -62.58524 | 38237 ft | 482 kts | 231° |
| 2026-04-16 17:37 | 30.12262 | -62.64435 | 38237 ft | 483 kts | 231° |
| 2026-04-16 17:38 | 30.08651 | -62.69350 | 38240 ft | 483 kts | 231° |
| 2026-04-16 17:38 | 30.03596 | -62.76220 | 38243 ft | 483 kts | 231° |
| 2026-04-16 17:39 | 29.99948 | -62.81171 | 38241 ft | 484 kts | 231° |
| 2026-04-16 17:39 | 29.95588 | -62.87080 | 38232 ft | 484 kts | 231° |
| 2026-04-16 17:40 | 29.91223 | -62.92986 | 38244 ft | 484 kts | 231° |
| 2026-04-16 17:40 | 29.86853 | -62.98891 | 38240 ft | 484 kts | 231° |
| 2026-04-16 17:41 | 29.82505 | -63.04758 | 38233 ft | 485 kts | 231° |
| 2026-04-16 17:41 | 29.78123 | -63.10662 | 38234 ft | 485 kts | 231° |
| 2026-04-16 17:42 | 29.73737 | -63.16563 | 38229 ft | 486 kts | 231° |
| 2026-04-16 17:42 | 29.69338 | -63.22472 | 38233 ft | 486 kts | 231° |
| 2026-04-16 17:43 | 29.64935 | -63.28377 | 38234 ft | 486 kts | 231° |
| 2026-04-16 17:43 | 29.60522 | -63.34289 | 38230 ft | 487 kts | 231° |
| 2026-04-16 17:44 | 29.56109 | -63.40191 | 38218 ft | 488 kts | 231° |
| 2026-04-16 17:44 | 29.51684 | -63.46100 | 38220 ft | 488 kts | 231° |
| 2026-04-16 17:45 | 29.47252 | -63.52010 | 38224 ft | 488 kts | 231° |
| 2026-04-16 17:45 | 29.42816 | -63.57917 | 38242 ft | 488 kts | 231° |
| 2026-04-16 17:46 | 29.38378 | -63.63816 | 38243 ft | 488 kts | 231° |
| 2026-04-16 17:46 | 29.33933 | -63.69719 | 38238 ft | 489 kts | 231° |
| 2026-04-16 17:47 | 29.29504 | -63.75590 | 38228 ft | 490 kts | 231° |
| 2026-04-16 17:47 | 29.25048 | -63.81488 | 38205 ft | 490 kts | 231° |
| 2026-04-16 17:48 | 29.20580 | -63.87395 | 38220 ft | 491 kts | 231° |
| 2026-04-16 17:48 | 29.16105 | -63.93302 | 38224 ft | 491 kts | 231° |
| 2026-04-16 17:49 | 29.11625 | -63.99206 | 38223 ft | 491 kts | 231° |
| 2026-04-16 17:49 | 29.07140 | -64.05109 | 38218 ft | 492 kts | 231° |
| 2026-04-16 17:50 | 29.02647 | -64.11014 | 38220 ft | 492 kts | 231° |
| 2026-04-16 17:50 | 28.98149 | -64.16918 | 38220 ft | 493 kts | 231° |
| 2026-04-16 17:51 | 28.93643 | -64.22822 | 38213 ft | 493 kts | 231° |
| 2026-04-16 17:51 | 28.89163 | -64.28684 | 38215 ft | 494 kts | 231° |
| 2026-04-16 17:52 | 28.84647 | -64.34585 | 38213 ft | 494 kts | 231° |
| 2026-04-16 17:52 | 28.80122 | -64.40488 | 38218 ft | 494 kts | 231° |
| 2026-04-16 17:53 | 28.75589 | -64.46396 | 38213 ft | 495 kts | 231° |
| 2026-04-16 17:53 | 28.71056 | -64.52293 | 38208 ft | 495 kts | 231° |
| 2026-04-16 17:54 | 28.66512 | -64.58197 | 38209 ft | 496 kts | 231° |
| 2026-04-16 17:54 | 28.61960 | -64.64102 | 38211 ft | 496 kts | 231° |
| 2026-04-16 17:55 | 28.57407 | -64.70001 | 38208 ft | 496 kts | 231° |
| 2026-04-16 17:55 | 28.52847 | -64.75900 | 38207 ft | 497 kts | 231° |
| 2026-04-16 17:56 | 28.48306 | -64.81766 | 38205 ft | 497 kts | 231° |
| 2026-04-16 17:56 | 28.41440 | -64.90619 | 38206 ft | 498 kts | 231° |
| 2026-04-16 17:57 | 28.36855 | -64.96522 | 38201 ft | 499 kts | 231° |
| 2026-04-16 17:57 | 28.32260 | -65.02427 | 38200 ft | 499 kts | 231° |
| 2026-04-16 17:58 | 28.27659 | -65.08334 | 38198 ft | 500 kts | 231° |
| 2026-04-16 17:58 | 28.23046 | -65.14247 | 38194 ft | 500 kts | 231° |
| 2026-04-16 17:59 | 28.18427 | -65.20159 | 38194 ft | 501 kts | 231° |
| 2026-04-16 17:59 | 28.13802 | -65.26070 | 38198 ft | 501 kts | 231° |
| 2026-04-16 18:00 | 28.09170 | -65.31982 | 38192 ft | 502 kts | 231° |
| 2026-04-16 18:00 | 28.04529 | -65.37898 | 38194 ft | 502 kts | 231° |
| 2026-04-16 18:01 | 27.99919 | -65.43766 | 38192 ft | 503 kts | 231° |
| 2026-04-16 18:01 | 27.95261 | -65.49686 | 38187 ft | 503 kts | 231° |
| 2026-04-16 18:02 | 27.90596 | -65.55606 | 38186 ft | 504 kts | 231° |
| 2026-04-16 18:02 | 27.85925 | -65.61526 | 38183 ft | 505 kts | 231° |
| 2026-04-16 18:03 | 27.81243 | -65.67452 | 38184 ft | 506 kts | 231° |
| 2026-04-16 18:03 | 27.76549 | -65.73385 | 38182 ft | 507 kts | 231° |
| 2026-04-16 18:04 | 27.71847 | -65.79319 | 38181 ft | 507 kts | 231° |
| 2026-04-16 18:04 | 27.67140 | -65.85252 | 38181 ft | 507 kts | 231° |
| 2026-04-16 18:05 | 27.62458 | -65.91144 | 38183 ft | 508 kts | 231° |
| 2026-04-16 18:05 | 27.57737 | -65.97077 | 38178 ft | 508 kts | 231° |
| 2026-04-16 18:06 | 27.53010 | -66.03011 | 38172 ft | 509 kts | 231° |
| 2026-04-16 18:06 | 27.48273 | -66.08948 | 38178 ft | 510 kts | 231° |
| 2026-04-16 18:07 | 27.43528 | -66.14886 | 38180 ft | 510 kts | 231° |
| 2026-04-16 18:07 | 27.38782 | -66.20818 | 38182 ft | 510 kts | 230° |
| 2026-04-16 18:08 | 27.34032 | -66.26746 | 38173 ft | 510 kts | 230° |
| 2026-04-16 18:08 | 27.29271 | -66.32680 | 38163 ft | 511 kts | 230° |
| 2026-04-16 18:09 | 27.24510 | -66.38606 | 38169 ft | 511 kts | 230° |
| 2026-04-16 18:09 | 27.19739 | -66.44535 | 38186 ft | 511 kts | 230° |
| 2026-04-16 18:10 | 27.14966 | -66.50460 | 38179 ft | 511 kts | 230° |
| 2026-04-16 18:10 | 27.10188 | -66.56383 | 38155 ft | 512 kts | 230° |
| 2026-04-16 18:11 | 27.05440 | -66.62260 | 38151 ft | 512 kts | 230° |
| 2026-04-16 18:11 | 27.00646 | -66.68185 | 38175 ft | 512 kts | 230° |
| 2026-04-16 18:12 | 26.95858 | -66.74096 | 38164 ft | 512 kts | 230° |
| 2026-04-16 18:12 | 26.91059 | -66.80012 | 38168 ft | 513 kts | 230° |
| 2026-04-16 18:13 | 26.86258 | -66.85923 | 38166 ft | 513 kts | 230° |
| 2026-04-16 18:13 | 26.81453 | -66.91830 | 38165 ft | 513 kts | 230° |
| 2026-04-16 18:14 | 26.76650 | -66.97727 | 38160 ft | 513 kts | 230° |
| 2026-04-16 18:14 | 26.71837 | -67.03627 | 38154 ft | 513 kts | 230° |
| 2026-04-16 18:15 | 26.67020 | -67.09525 | 38157 ft | 513 kts | 230° |
| 2026-04-16 18:15 | 26.62202 | -67.15417 | 38151 ft | 513 kts | 230° |
| 2026-04-16 18:16 | 26.57383 | -67.21301 | 38152 ft | 513 kts | 230° |
| 2026-04-16 18:16 | 26.52559 | -67.27184 | 38156 ft | 513 kts | 230° |
| 2026-04-16 18:17 | 26.47734 | -67.33060 | 38156 ft | 513 kts | 230° |
| 2026-04-16 18:17 | 26.42941 | -67.38889 | 38153 ft | 513 kts | 230° |
| 2026-04-16 18:18 | 26.38118 | -67.44747 | 38151 ft | 512 kts | 230° |
| 2026-04-16 18:18 | 26.33302 | -67.50589 | 38150 ft | 512 kts | 230° |
| 2026-04-16 18:19 | 26.28480 | -67.56430 | 38147 ft | 511 kts | 230° |
| 2026-04-16 18:19 | 26.23663 | -67.62258 | 38143 ft | 511 kts | 229° |
| 2026-04-16 18:20 | 26.18846 | -67.68078 | 38143 ft | 510 kts | 229° |
| 2026-04-16 18:20 | 26.14034 | -67.73885 | 38144 ft | 510 kts | 229° |
| 2026-04-16 18:21 | 26.09222 | -67.79683 | 38140 ft | 509 kts | 229° |
| 2026-04-16 18:21 | 26.04418 | -67.85465 | 38137 ft | 509 kts | 229° |
| 2026-04-16 18:22 | 25.99612 | -67.91246 | 38135 ft | 508 kts | 229° |
| 2026-04-16 18:22 | 25.94836 | -67.96985 | 38136 ft | 508 kts | 229° |
| 2026-04-16 18:23 | 25.90037 | -68.02743 | 38130 ft | 508 kts | 229° |
| 2026-04-16 18:23 | 25.85231 | -68.08502 | 38125 ft | 508 kts | 229° |
| 2026-04-16 18:24 | 25.80429 | -68.14249 | 38123 ft | 508 kts | 229° |
| 2026-04-16 18:24 | 25.75581 | -68.19950 | 38118 ft | 508 kts | 229° |
| 2026-04-16 18:25 | 25.70797 | -68.25715 | 38119 ft | 508 kts | 230° |
| 2026-04-16 18:25 | 25.66003 | -68.31472 | 38117 ft | 508 kts | 230° |
| 2026-04-16 18:26 | 25.61189 | -68.37205 | 38121 ft | 508 kts | 229° |
| 2026-04-16 18:26 | 25.56363 | -68.42938 | 38123 ft | 508 kts | 229° |
| 2026-04-16 18:27 | 25.51538 | -68.48661 | 38120 ft | 509 kts | 229° |
| 2026-04-16 18:27 | 25.46708 | -68.54385 | 38117 ft | 509 kts | 229° |
| 2026-04-16 18:28 | 25.41874 | -68.60106 | 38113 ft | 509 kts | 229° |
| 2026-04-16 18:28 | 25.37852 | -68.64861 | 38117 ft | 509 kts | 229° |
| 2026-04-16 18:29 | 25.33014 | -68.70573 | 38114 ft | 509 kts | 229° |
| 2026-04-16 18:29 | 25.28176 | -68.76278 | 38113 ft | 509 kts | 229° |
| 2026-04-16 18:30 | 25.23328 | -68.81988 | 38109 ft | 509 kts | 229° |
| 2026-04-16 18:30 | 25.18483 | -68.87687 | 38105 ft | 509 kts | 229° |
| 2026-04-16 18:31 | 25.13629 | -68.93390 | 38101 ft | 510 kts | 229° |
| 2026-04-16 18:31 | 25.08769 | -68.99092 | 38106 ft | 510 kts | 229° |
| 2026-04-16 18:32 | 25.03937 | -69.04756 | 38106 ft | 510 kts | 229° |
| 2026-04-16 18:32 | 24.98763 | -69.10115 | 38105 ft | 513 kts | 220° |
| 2026-04-16 18:33 | 24.92828 | -69.14524 | 38104 ft | 515 kts | 214° |
| 2026-04-16 18:33 | 24.86827 | -69.18796 | 38495 ft | 507 kts | 215° |
| 2026-04-16 18:34 | 24.83883 | -69.20902 | 38771 ft | 504 kts | 215° |
| 2026-04-16 18:34 | 24.80948 | -69.23003 | 38886 ft | 503 kts | 215° |
| 2026-04-16 18:34 | 24.78011 | -69.25106 | 38993 ft | 503 kts | 215° |
| 2026-04-16 18:34 | 24.75078 | -69.27203 | 39094 ft | 503 kts | 215° |
| 2026-04-16 18:35 | 24.69211 | -69.31394 | 39266 ft | 503 kts | 215° |
| 2026-04-16 18:35 | 24.66279 | -69.33485 | 39372 ft | 503 kts | 215° |
| 2026-04-16 18:35 | 24.63344 | -69.35577 | 39477 ft | 502 kts | 215° |
| 2026-04-16 18:36 | 24.57477 | -69.39754 | 39639 ft | 502 kts | 215° |
| 2026-04-16 18:36 | 24.51611 | -69.43927 | 39825 ft | 502 kts | 215° |
| 2026-04-16 18:37 | 24.45789 | -69.48063 | 40006 ft | 502 kts | 215° |
| 2026-04-16 18:37 | 24.39923 | -69.52226 | 40090 ft | 501 kts | 215° |
| 2026-04-16 18:38 | 24.34074 | -69.56372 | 40088 ft | 501 kts | 215° |
| 2026-04-16 18:38 | 24.28219 | -69.60518 | 40083 ft | 501 kts | 215° |
| 2026-04-16 18:39 | 24.22364 | -69.64660 | 40083 ft | 501 kts | 215° |
| 2026-04-16 18:39 | 24.16502 | -69.68801 | 40079 ft | 501 kts | 215° |
| 2026-04-16 18:40 | 24.10646 | -69.72935 | 40082 ft | 501 kts | 215° |
| 2026-04-16 18:40 | 24.04790 | -69.77062 | 40081 ft | 501 kts | 215° |
| 2026-04-16 18:41 | 23.98924 | -69.81193 | 40074 ft | 501 kts | 215° |
| 2026-04-16 18:41 | 23.93067 | -69.85313 | 40076 ft | 501 kts | 215° |
| 2026-04-16 18:42 | 23.87203 | -69.89434 | 40071 ft | 501 kts | 215° |
| 2026-04-16 18:42 | 23.81332 | -69.93555 | 40072 ft | 501 kts | 215° |
| 2026-04-16 18:43 | 23.75507 | -69.97639 | 40069 ft | 501 kts | 215° |
| 2026-04-16 18:43 | 23.69629 | -70.01756 | 40066 ft | 501 kts | 215° |
| 2026-04-16 18:44 | 23.63764 | -70.05859 | 40067 ft | 501 kts | 215° |
| 2026-04-16 18:44 | 23.57896 | -70.09959 | 40068 ft | 501 kts | 215° |
| 2026-04-16 18:45 | 23.52030 | -70.14054 | 40064 ft | 501 kts | 215° |
| 2026-04-16 18:45 | 23.46153 | -70.18153 | 40062 ft | 501 kts | 215° |
| 2026-04-16 18:46 | 23.40280 | -70.22244 | 40057 ft | 501 kts | 215° |
| 2026-04-16 18:46 | 23.34407 | -70.26330 | 40057 ft | 501 kts | 214° |
| 2026-04-16 18:47 | 23.28529 | -70.30417 | 40054 ft | 501 kts | 214° |
| 2026-04-16 18:47 | 23.22650 | -70.34499 | 40054 ft | 501 kts | 214° |
| 2026-04-16 18:48 | 23.16772 | -70.38576 | 40049 ft | 502 kts | 214° |
| 2026-04-16 18:48 | 23.10883 | -70.42656 | 40049 ft | 502 kts | 214° |
| 2026-04-16 18:49 | 23.04994 | -70.46732 | 40048 ft | 502 kts | 214° |
| 2026-04-16 18:49 | 22.99109 | -70.50801 | 40051 ft | 502 kts | 214° |
| 2026-04-16 18:50 | 22.93219 | -70.54870 | 40048 ft | 502 kts | 214° |
| 2026-04-16 18:50 | 22.87366 | -70.58909 | 40050 ft | 501 kts | 214° |
| 2026-04-16 18:51 | 22.81481 | -70.62965 | 40045 ft | 501 kts | 214° |
| 2026-04-16 18:51 | 22.75597 | -70.67016 | 40043 ft | 501 kts | 214° |
| 2026-04-16 18:52 | 22.69710 | -70.71066 | 40037 ft | 501 kts | 214° |
| 2026-04-16 18:52 | 22.63823 | -70.75111 | 40034 ft | 501 kts | 214° |
| 2026-04-16 18:53 | 22.57939 | -70.79150 | 40036 ft | 501 kts | 214° |
| 2026-04-16 18:53 | 22.52057 | -70.83184 | 40037 ft | 501 kts | 214° |
| 2026-04-16 18:54 | 22.46171 | -70.87216 | 40031 ft | 501 kts | 214° |
| 2026-04-16 18:54 | 22.40289 | -70.91241 | 40030 ft | 501 kts | 214° |
| 2026-04-16 18:55 | 22.34395 | -70.95271 | 40026 ft | 501 kts | 214° |
| 2026-04-16 18:55 | 22.28509 | -70.99290 | 40024 ft | 501 kts | 214° |
| 2026-04-16 18:56 | 22.22621 | -71.03307 | 40022 ft | 501 kts | 214° |
| 2026-04-16 18:56 | 22.16765 | -71.07299 | 40022 ft | 501 kts | 214° |
| 2026-04-16 18:57 | 22.10875 | -71.11310 | 40019 ft | 501 kts | 214° |
| 2026-04-16 18:58 | 22.02034 | -71.17322 | 40018 ft | 501 kts | 214° |
| 2026-04-16 18:58 | 21.96139 | -71.21325 | 40019 ft | 501 kts | 214° |
| 2026-04-16 18:59 | 21.90247 | -71.25324 | 40018 ft | 501 kts | 214° |
| 2026-04-16 18:59 | 21.84344 | -71.29325 | 40014 ft | 501 kts | 214° |
| 2026-04-16 19:00 | 21.78448 | -71.33318 | 40011 ft | 501 kts | 214° |
| 2026-04-16 19:00 | 21.72542 | -71.37313 | 40011 ft | 501 kts | 214° |
| 2026-04-16 19:01 | 21.66635 | -71.41306 | 40008 ft | 501 kts | 214° |
| 2026-04-16 19:01 | 21.60731 | -71.45292 | 40003 ft | 502 kts | 214° |
| 2026-04-16 19:02 | 21.54814 | -71.49283 | 40003 ft | 502 kts | 214° |
| 2026-04-16 19:02 | 21.48929 | -71.53249 | 40008 ft | 503 kts | 214° |
| 2026-04-16 19:03 | 21.42965 | -71.57264 | 40004 ft | 503 kts | 214° |
| 2026-04-16 19:03 | 21.37047 | -71.61244 | 40003 ft | 502 kts | 214° |
| 2026-04-16 19:04 | 21.31130 | -71.65219 | 40002 ft | 502 kts | 214° |
| 2026-04-16 19:04 | 21.25255 | -71.69163 | 39999 ft | 501 kts | 214° |
| 2026-04-16 19:05 | 21.19342 | -71.73129 | 39998 ft | 501 kts | 214° |
| 2026-04-16 19:05 | 21.13431 | -71.77089 | 39995 ft | 501 kts | 214° |
| 2026-04-16 19:06 | 21.07514 | -71.81049 | 40000 ft | 501 kts | 214° |
| 2026-04-16 19:06 | 21.01602 | -71.85003 | 39996 ft | 501 kts | 214° |
| 2026-04-16 19:07 | 20.95684 | -71.88957 | 39987 ft | 501 kts | 214° |
| 2026-04-16 19:07 | 20.89773 | -71.92902 | 40005 ft | 501 kts | 214° |
| 2026-04-16 19:08 | 20.83859 | -71.96846 | 39991 ft | 501 kts | 214° |
| 2026-04-16 19:08 | 20.77944 | -72.00786 | 39983 ft | 501 kts | 214° |
| 2026-04-16 19:09 | 20.72027 | -72.04724 | 39980 ft | 501 kts | 214° |
| 2026-04-16 19:09 | 20.66109 | -72.08659 | 39972 ft | 501 kts | 214° |
| 2026-04-16 19:10 | 20.60187 | -72.12594 | 39975 ft | 501 kts | 214° |
| 2026-04-16 19:10 | 20.54306 | -72.16498 | 39985 ft | 501 kts | 214° |
| 2026-04-16 19:11 | 20.48385 | -72.20427 | 39982 ft | 501 kts | 214° |
| 2026-04-16 19:11 | 20.42653 | -72.24618 | 39981 ft | 498 kts | 222° |
| 2026-04-16 19:12 | 20.37725 | -72.29782 | 39985 ft | 496 kts | 233° |
| 2026-04-16 19:12 | 20.33296 | -72.35428 | 39979 ft | 499 kts | 232° |
| 2026-04-16 19:13 | 20.28671 | -72.40970 | 39980 ft | 501 kts | 231° |
| 2026-04-16 19:13 | 20.23913 | -72.46422 | 39985 ft | 503 kts | 230° |
| 2026-04-16 19:14 | 20.19095 | -72.51849 | 39982 ft | 505 kts | 230° |
| 2026-04-16 19:14 | 20.14260 | -72.57280 | 39985 ft | 505 kts | 230° |
| 2026-04-16 19:15 | 20.09442 | -72.62690 | 39960 ft | 507 kts | 230° |
| 2026-04-16 19:15 | 20.04563 | -72.68164 | 39970 ft | 507 kts | 230° |
| 2026-04-16 19:16 | 20.00525 | -72.72690 | 39968 ft | 507 kts | 230° |
| 2026-04-16 19:16 | 19.94877 | -72.79015 | 39972 ft | 508 kts | 230° |
| 2026-04-16 19:17 | 19.90011 | -72.84459 | 39969 ft | 508 kts | 230° |
| 2026-04-16 19:17 | 19.85928 | -72.89024 | 39970 ft | 509 kts | 230° |
| 2026-04-16 19:18 | 19.81049 | -72.94474 | 39967 ft | 509 kts | 230° |
| 2026-04-16 19:18 | 19.76195 | -72.99889 | 39970 ft | 509 kts | 230° |
| 2026-04-16 19:19 | 19.71307 | -73.05339 | 39967 ft | 510 kts | 230° |
| 2026-04-16 19:19 | 19.66414 | -73.10788 | 39965 ft | 510 kts | 230° |
| 2026-04-16 19:20 | 19.61515 | -73.16239 | 39963 ft | 510 kts | 230° |
| 2026-04-16 19:20 | 19.56620 | -73.21681 | 39962 ft | 510 kts | 230° |
| 2026-04-16 19:21 | 19.51713 | -73.27130 | 39963 ft | 510 kts | 230° |
| 2026-04-16 19:21 | 19.46811 | -73.32570 | 39964 ft | 510 kts | 230° |
| 2026-04-16 19:22 | 19.41905 | -73.38009 | 39959 ft | 510 kts | 230° |
| 2026-04-16 19:22 | 19.36997 | -73.43445 | 39961 ft | 510 kts | 230° |
| 2026-04-16 19:23 | 19.32088 | -73.48877 | 39959 ft | 510 kts | 230° |
| 2026-04-16 19:23 | 19.27180 | -73.54303 | 39959 ft | 510 kts | 230° |
| 2026-04-16 19:24 | 19.22264 | -73.59732 | 39956 ft | 511 kts | 230° |
| 2026-04-16 19:24 | 19.17349 | -73.65156 | 39947 ft | 511 kts | 230° |
| 2026-04-16 19:25 | 19.12428 | -73.70581 | 39954 ft | 511 kts | 230° |
| 2026-04-16 19:25 | 19.07538 | -73.75967 | 39958 ft | 511 kts | 230° |
| 2026-04-16 19:26 | 19.02614 | -73.81386 | 39957 ft | 511 kts | 230° |
| 2026-04-16 19:26 | 18.97688 | -73.86801 | 39954 ft | 512 kts | 230° |
| 2026-04-16 19:27 | 18.92750 | -73.92225 | 39955 ft | 512 kts | 230° |
| 2026-04-16 19:27 | 18.87816 | -73.97640 | 39962 ft | 512 kts | 230° |
| 2026-04-16 19:28 | 18.82875 | -74.03058 | 39960 ft | 512 kts | 230° |
| 2026-04-16 19:28 | 18.77933 | -74.08472 | 39966 ft | 512 kts | 230° |
| 2026-04-16 19:29 | 18.72990 | -74.13882 | 39972 ft | 512 kts | 230° |
| 2026-04-16 19:29 | 18.68037 | -74.19298 | 39970 ft | 512 kts | 230° |
| 2026-04-16 19:30 | 18.63090 | -74.24703 | 39965 ft | 513 kts | 230° |
| 2026-04-16 19:30 | 18.58132 | -74.30115 | 39978 ft | 513 kts | 230° |
| 2026-04-16 19:31 | 18.53170 | -74.35524 | 39979 ft | 513 kts | 230° |
| 2026-04-16 19:31 | 18.48241 | -74.40895 | 39976 ft | 513 kts | 230° |
| 2026-04-16 19:32 | 18.43277 | -74.46299 | 39973 ft | 513 kts | 230° |
| 2026-04-16 19:32 | 18.38311 | -74.51700 | 39970 ft | 513 kts | 230° |
| 2026-04-16 19:32 | 18.35832 | -74.54393 | 40168 ft | 508 kts | 230° |
| 2026-04-16 19:33 | 18.33391 | -74.57042 | 40496 ft | 501 kts | 230° |
| 2026-04-16 19:33 | 18.30969 | -74.59672 | 40652 ft | 500 kts | 230° |
| 2026-04-16 19:33 | 18.28552 | -74.62299 | 40745 ft | 499 kts | 230° |
| 2026-04-16 19:34 | 18.23731 | -74.67556 | 40893 ft | 498 kts | 232° |
| 2026-04-16 19:34 | 18.19228 | -74.73080 | 40978 ft | 497 kts | 234° |
| 2026-04-16 19:35 | 18.14769 | -74.78666 | 40968 ft | 500 kts | 234° |
| 2026-04-16 19:35 | 18.10243 | -74.84233 | 40964 ft | 502 kts | 234° |
| 2026-04-16 19:36 | 18.05696 | -74.89812 | 40965 ft | 502 kts | 234° |
| 2026-04-16 19:36 | 18.01238 | -74.95459 | 40967 ft | 502 kts | 236° |
| 2026-04-16 19:37 | 17.96814 | -75.01142 | 40965 ft | 503 kts | 234° |
| 2026-04-16 19:37 | 17.92295 | -75.06708 | 40930 ft | 505 kts | 233° |
| 2026-04-16 19:38 | 17.87707 | -75.12284 | 40935 ft | 505 kts | 233° |
| 2026-04-16 19:38 | 17.83112 | -75.17857 | 40952 ft | 505 kts | 233° |
| 2026-04-16 19:39 | 17.78521 | -75.23425 | 40954 ft | 505 kts | 233° |
| 2026-04-16 19:39 | 17.73924 | -75.28996 | 40949 ft | 505 kts | 233° |
| 2026-04-16 19:40 | 17.69326 | -75.34564 | 40947 ft | 505 kts | 233° |
| 2026-04-16 19:40 | 17.64724 | -75.40132 | 40948 ft | 505 kts | 233° |
| 2026-04-16 19:41 | 17.60126 | -75.45691 | 40950 ft | 505 kts | 233° |
| 2026-04-16 19:41 | 17.55530 | -75.51241 | 40947 ft | 504 kts | 233° |
| 2026-04-16 19:42 | 17.50926 | -75.56798 | 40943 ft | 504 kts | 233° |
| 2026-04-16 19:42 | 17.46321 | -75.62351 | 40942 ft | 505 kts | 233° |
| 2026-04-16 19:43 | 17.41715 | -75.67900 | 40943 ft | 505 kts | 233° |
| 2026-04-16 19:43 | 17.37108 | -75.73446 | 40943 ft | 505 kts | 233° |
| 2026-04-16 19:44 | 17.32525 | -75.78958 | 40942 ft | 505 kts | 233° |
| 2026-04-16 19:44 | 17.27910 | -75.84505 | 40944 ft | 505 kts | 233° |
| 2026-04-16 19:45 | 17.23295 | -75.90047 | 40942 ft | 505 kts | 233° |
| 2026-04-16 19:45 | 17.18679 | -75.95585 | 40949 ft | 505 kts | 233° |
| 2026-04-16 19:46 | 17.14057 | -76.01126 | 40941 ft | 505 kts | 233° |
| 2026-04-16 19:46 | 17.09436 | -76.06661 | 40940 ft | 505 kts | 233° |
| 2026-04-16 19:47 | 17.04808 | -76.12201 | 40934 ft | 506 kts | 233° |
| 2026-04-16 19:47 | 17.00180 | -76.17735 | 40935 ft | 506 kts | 233° |
| 2026-04-16 19:48 | 16.95548 | -76.23270 | 40935 ft | 506 kts | 233° |
| 2026-04-16 19:48 | 16.90913 | -76.28804 | 40936 ft | 506 kts | 233° |
| 2026-04-16 19:49 | 16.86275 | -76.34337 | 40936 ft | 506 kts | 233° |
| 2026-04-16 19:49 | 16.81632 | -76.39871 | 40937 ft | 507 kts | 233° |
| 2026-04-16 19:50 | 16.76987 | -76.45404 | 40931 ft | 507 kts | 233° |
| 2026-04-16 19:50 | 16.72341 | -76.50933 | 40933 ft | 507 kts | 233° |
| 2026-04-16 19:51 | 16.67719 | -76.56429 | 40933 ft | 507 kts | 233° |
| 2026-04-16 19:51 | 16.63060 | -76.61964 | 40933 ft | 508 kts | 233° |
| 2026-04-16 19:52 | 16.58399 | -76.67498 | 40933 ft | 508 kts | 233° |
| 2026-04-16 19:52 | 16.53734 | -76.73031 | 40935 ft | 508 kts | 233° |
| 2026-04-16 19:53 | 16.49069 | -76.78561 | 40940 ft | 508 kts | 233° |
| 2026-04-16 19:53 | 16.44401 | -76.84090 | 40935 ft | 508 kts | 233° |
| 2026-04-16 19:54 | 16.39729 | -76.89619 | 40934 ft | 508 kts | 233° |
| 2026-04-16 19:54 | 16.35053 | -76.95148 | 40929 ft | 508 kts | 233° |
| 2026-04-16 19:55 | 16.30382 | -77.00667 | 40934 ft | 508 kts | 233° |
| 2026-04-16 19:55 | 16.25704 | -77.06190 | 40938 ft | 508 kts | 233° |
| 2026-04-16 19:56 | 16.21029 | -77.11705 | 40936 ft | 508 kts | 233° |
| 2026-04-16 19:56 | 16.16348 | -77.17223 | 40938 ft | 508 kts | 233° |
| 2026-04-16 19:57 | 16.11666 | -77.22737 | 40942 ft | 508 kts | 234° |
| 2026-04-16 19:57 | 16.06993 | -77.28238 | 40938 ft | 508 kts | 233° |
| 2026-04-16 19:58 | 16.02347 | -77.33697 | 40934 ft | 507 kts | 233° |
| 2026-04-16 19:58 | 15.96906 | -77.38460 | 40932 ft | 518 kts | 216° |
| 2026-04-16 19:59 | 15.90317 | -77.41594 | 40933 ft | 526 kts | 199° |
| 2026-04-16 19:59 | 15.83297 | -77.43723 | 40931 ft | 526 kts | 199° |
| 2026-04-16 20:00 | 15.72783 | -77.46988 | 40928 ft | 526 kts | 199° |
| 2026-04-16 20:00 | 15.65768 | -77.49169 | 40932 ft | 526 kts | 199° |
| 2026-04-16 20:01 | 15.58762 | -77.51344 | 40926 ft | 526 kts | 199° |
| 2026-04-16 20:01 | 15.51753 | -77.53517 | 40917 ft | 526 kts | 199° |
| 2026-04-16 20:02 | 15.44742 | -77.55689 | 40918 ft | 526 kts | 199° |
| 2026-04-16 20:02 | 15.37735 | -77.57859 | 40928 ft | 526 kts | 199° |
| 2026-04-16 20:03 | 15.31912 | -77.59661 | 40935 ft | 526 kts | 199° |
| 2026-04-16 20:03 | 15.23719 | -77.62195 | 40930 ft | 525 kts | 199° |
| 2026-04-16 20:04 | 15.17894 | -77.63995 | 40925 ft | 525 kts | 199° |
| 2026-04-16 20:04 | 15.10897 | -77.66156 | 40921 ft | 525 kts | 199° |
| 2026-04-16 20:05 | 15.03887 | -77.68319 | 40924 ft | 525 kts | 199° |
| 2026-04-16 20:05 | 14.96890 | -77.70477 | 40923 ft | 525 kts | 199° |
| 2026-04-16 20:06 | 14.89893 | -77.72633 | 40923 ft | 525 kts | 199° |
| 2026-04-16 20:06 | 14.82895 | -77.74788 | 40919 ft | 524 kts | 199° |
| 2026-04-16 20:07 | 14.75898 | -77.76942 | 40921 ft | 524 kts | 199° |
| 2026-04-16 20:07 | 14.68907 | -77.79091 | 40924 ft | 524 kts | 200° |
| 2026-04-16 20:08 | 14.61959 | -77.81227 | 40922 ft | 524 kts | 200° |
| 2026-04-16 20:08 | 14.54967 | -77.83374 | 40921 ft | 524 kts | 200° |
| 2026-04-16 20:09 | 14.47973 | -77.85521 | 40920 ft | 524 kts | 200° |
| 2026-04-16 20:09 | 14.40987 | -77.87663 | 40918 ft | 524 kts | 200° |
| 2026-04-16 20:10 | 14.34003 | -77.89804 | 40916 ft | 524 kts | 200° |
| 2026-04-16 20:10 | 14.27013 | -77.91945 | 40916 ft | 524 kts | 200° |
| 2026-04-16 20:11 | 14.20030 | -77.94082 | 40918 ft | 524 kts | 200° |
| 2026-04-16 20:11 | 14.13045 | -77.96219 | 40917 ft | 523 kts | 200° |
| 2026-04-16 20:12 | 14.06061 | -77.98354 | 40918 ft | 523 kts | 200° |
| 2026-04-16 20:12 | 13.99080 | -78.00487 | 40918 ft | 523 kts | 200° |
| 2026-04-16 20:13 | 13.92148 | -78.02603 | 40916 ft | 523 kts | 200° |
| 2026-04-16 20:13 | 13.85169 | -78.04733 | 40916 ft | 523 kts | 200° |
| 2026-04-16 20:14 | 13.78194 | -78.06859 | 40917 ft | 522 kts | 200° |
| 2026-04-16 20:14 | 13.71229 | -78.08982 | 40917 ft | 522 kts | 200° |
| 2026-04-16 20:15 | 13.64267 | -78.11102 | 40914 ft | 521 kts | 200° |
| 2026-04-16 20:15 | 13.57315 | -78.13218 | 40919 ft | 521 kts | 200° |
| 2026-04-16 20:16 | 13.50398 | -78.15419 | 40921 ft | 519 kts | 201° |
| 2026-04-16 20:16 | 13.43514 | -78.17663 | 40917 ft | 519 kts | 201° |
| 2026-04-16 20:17 | 13.36635 | -78.19888 | 40914 ft | 518 kts | 201° |
| 2026-04-16 20:17 | 13.29754 | -78.22104 | 40908 ft | 518 kts | 201° |
| 2026-04-16 20:18 | 13.22883 | -78.24314 | 40903 ft | 517 kts | 201° |
| 2026-04-16 20:18 | 13.16017 | -78.26522 | 40904 ft | 517 kts | 201° |
| 2026-04-16 20:19 | 13.09163 | -78.28724 | 40915 ft | 516 kts | 201° |
| 2026-04-16 20:19 | 13.02314 | -78.30925 | 40919 ft | 516 kts | 201° |
| 2026-04-16 20:20 | 12.95512 | -78.33108 | 40911 ft | 515 kts | 201° |
| 2026-04-16 20:20 | 12.88669 | -78.35303 | 40908 ft | 515 kts | 201° |
| 2026-04-16 20:21 | 12.81792 | -78.37508 | 40909 ft | 515 kts | 201° |
| 2026-04-16 20:21 | 12.75008 | -78.39683 | 40909 ft | 514 kts | 201° |
| 2026-04-16 20:22 | 12.68179 | -78.41870 | 40901 ft | 514 kts | 201° |
| 2026-04-16 20:22 | 12.61355 | -78.44054 | 40907 ft | 513 kts | 201° |
| 2026-04-16 20:23 | 12.54541 | -78.46234 | 40912 ft | 513 kts | 201° |
| 2026-04-16 20:23 | 12.47733 | -78.48411 | 40907 ft | 512 kts | 201° |
| 2026-04-16 20:24 | 12.40934 | -78.50584 | 40906 ft | 511 kts | 201° |
| 2026-04-16 20:24 | 12.34143 | -78.52753 | 40909 ft | 511 kts | 201° |
| 2026-04-16 20:25 | 12.27358 | -78.54918 | 40906 ft | 510 kts | 201° |
| 2026-04-16 20:25 | 12.20583 | -78.57080 | 40910 ft | 509 kts | 201° |
| 2026-04-16 20:26 | 12.13821 | -78.59236 | 40908 ft | 509 kts | 201° |
| 2026-04-16 20:26 | 12.07062 | -78.61390 | 40907 ft | 508 kts | 201° |
| 2026-04-16 20:27 | 12.00310 | -78.63541 | 40901 ft | 508 kts | 201° |
| 2026-04-16 20:27 | 11.93572 | -78.65686 | 40898 ft | 507 kts | 201° |
| 2026-04-16 20:28 | 11.86841 | -78.67828 | 40900 ft | 507 kts | 201° |
| 2026-04-16 20:28 | 11.80121 | -78.69992 | 40907 ft | 504 kts | 204° |
| 2026-04-16 20:29 | 11.73685 | -78.72639 | 40902 ft | 502 kts | 207° |
| 2026-04-16 20:29 | 11.67230 | -78.75339 | 40900 ft | 501 kts | 207° |
| 2026-04-16 20:30 | 11.60774 | -78.78029 | 40902 ft | 501 kts | 207° |
| 2026-04-16 20:30 | 11.54323 | -78.80715 | 40899 ft | 500 kts | 207° |
| 2026-04-16 20:31 | 11.47884 | -78.83395 | 40901 ft | 500 kts | 207° |
| 2026-04-16 20:31 | 11.41446 | -78.86073 | 40903 ft | 499 kts | 207° |
| 2026-04-16 20:32 | 11.35017 | -78.88747 | 40901 ft | 498 kts | 207° |
| 2026-04-16 20:32 | 11.28599 | -78.91414 | 40902 ft | 497 kts | 207° |
| 2026-04-16 20:33 | 11.22343 | -78.94013 | 40904 ft | 497 kts | 207° |
| 2026-04-16 20:33 | 11.15950 | -78.96667 | 40904 ft | 496 kts | 207° |
| 2026-04-16 20:34 | 11.09564 | -78.99318 | 40903 ft | 495 kts | 207° |
| 2026-04-16 20:34 | 11.03192 | -79.01961 | 40903 ft | 494 kts | 206° |
| 2026-04-16 20:35 | 10.96838 | -79.04596 | 40898 ft | 493 kts | 206° |
| 2026-04-16 20:35 | 10.90484 | -79.07229 | 40899 ft | 492 kts | 206° |
| 2026-04-16 20:36 | 10.84144 | -79.09856 | 40898 ft | 492 kts | 206° |
| 2026-04-16 20:36 | 10.77813 | -79.12478 | 40898 ft | 491 kts | 206° |
| 2026-04-16 20:37 | 10.71490 | -79.15095 | 40830 ft | 488 kts | 206° |
| 2026-04-16 20:37 | 10.68369 | -79.16384 | 40594 ft | 481 kts | 206° |
| 2026-04-16 20:37 | 10.65283 | -79.17659 | 40341 ft | 477 kts | 206° |
| 2026-04-16 20:38 | 10.62206 | -79.18933 | 40103 ft | 479 kts | 206° |
| 2026-04-16 20:38 | 10.59105 | -79.20218 | 39862 ft | 483 kts | 206° |
| 2026-04-16 20:38 | 10.55986 | -79.21509 | 39631 ft | 485 kts | 206° |
| 2026-04-16 20:38 | 10.52859 | -79.22801 | 39391 ft | 486 kts | 206° |
| 2026-04-16 20:39 | 10.49722 | -79.24097 | 39151 ft | 487 kts | 206° |
| 2026-04-16 20:39 | 10.46625 | -79.25376 | 38934 ft | 488 kts | 206° |
| 2026-04-16 20:39 | 10.43476 | -79.26677 | 38713 ft | 489 kts | 206° |
| 2026-04-16 20:39 | 10.40318 | -79.27980 | 38466 ft | 490 kts | 206° |
| 2026-04-16 20:40 | 10.37157 | -79.29286 | 38166 ft | 492 kts | 206° |
| 2026-04-16 20:40 | 10.33974 | -79.30601 | 37498 ft | 496 kts | 206° |
| 2026-04-16 20:40 | 10.30750 | -79.31934 | 36425 ft | 505 kts | 206° |
| 2026-04-16 20:40 | 10.27456 | -79.33298 | 35020 ft | 520 kts | 205° |
| 2026-04-16 20:41 | 10.24050 | -79.34707 | 33650 ft | 534 kts | 205° |
| 2026-04-16 20:41 | 10.20603 | -79.36130 | 32420 ft | 532 kts | 204° |
| 2026-04-16 20:41 | 10.17202 | -79.37531 | 31483 ft | 521 kts | 204° |
| 2026-04-16 20:41 | 10.13884 | -79.38898 | 30774 ft | 508 kts | 203° |
| 2026-04-16 20:42 | 10.10638 | -79.40235 | 30087 ft | 498 kts | 203° |
| 2026-04-16 20:42 | 10.07460 | -79.41545 | 29317 ft | 487 kts | 202° |
| 2026-04-16 20:42 | 10.04415 | -79.42797 | 28551 ft | 478 kts | 203° |
| 2026-04-16 20:42 | 10.01306 | -79.44075 | 27788 ft | 468 kts | 203° |
| 2026-04-16 20:43 | 9.98314 | -79.45306 | 27088 ft | 458 kts | 203° |
| 2026-04-16 20:43 | 9.95394 | -79.46507 | 26511 ft | 447 kts | 203° |
| 2026-04-16 20:43 | 9.92567 | -79.47669 | 26182 ft | 429 kts | 203° |
| 2026-04-16 20:43 | 9.89850 | -79.48784 | 25869 ft | 413 kts | 203° |
| 2026-04-16 20:44 | 9.87132 | -79.49522 | 25558 ft | 399 kts | 188° |
| 2026-04-16 20:44 | 9.84408 | -79.49489 | 25248 ft | 386 kts | 171° |
| 2026-04-16 20:44 | 9.81860 | -79.48686 | 24932 ft | 385 kts | 156° |
| 2026-04-16 20:44 | 9.79450 | -79.47498 | 24607 ft | 387 kts | 153° |
| 2026-04-16 20:45 | 9.77052 | -79.46257 | 24209 ft | 387 kts | 154° |
| 2026-04-16 20:45 | 9.74646 | -79.45057 | 23821 ft | 383 kts | 155° |
| 2026-04-16 20:45 | 9.72245 | -79.43913 | 23378 ft | 380 kts | 156° |
| 2026-04-16 20:45 | 9.69875 | -79.42820 | 22861 ft | 378 kts | 157° |
| 2026-04-16 20:46 | 9.67485 | -79.41738 | 22356 ft | 376 kts | 157° |
| 2026-04-16 20:46 | 9.65100 | -79.40663 | 21856 ft | 373 kts | 157° |
| 2026-04-16 20:46 | 9.62747 | -79.39604 | 21360 ft | 366 kts | 157° |
| 2026-04-16 20:46 | 9.60443 | -79.38564 | 20793 ft | 359 kts | 156° |
| 2026-04-16 20:47 | 9.58184 | -79.37531 | 20231 ft | 354 kts | 154° |
| 2026-04-16 20:47 | 9.56086 | -79.36272 | 19678 ft | 349 kts | 144° |
| 2026-04-16 20:47 | 9.54153 | -79.34807 | 19137 ft | 345 kts | 143° |
| 2026-04-16 20:47 | 9.52229 | -79.33350 | 18595 ft | 346 kts | 143° |
| 2026-04-16 20:48 | 9.50286 | -79.31895 | 18057 ft | 347 kts | 143° |
| 2026-04-16 20:48 | 9.48349 | -79.30447 | 17442 ft | 344 kts | 143° |
| 2026-04-16 20:48 | 9.46440 | -79.29020 | 16835 ft | 338 kts | 144° |
| 2026-04-16 20:48 | 9.45203 | -79.28095 | 16558 ft | 331 kts | 144° |
| 2026-04-16 20:49 | 9.43393 | -79.26744 | 16300 ft | 315 kts | 144° |
| 2026-04-16 20:49 | 9.41673 | -79.25459 | 16057 ft | 302 kts | 145° |
| 2026-04-16 20:49 | 9.39961 | -79.24185 | 15806 ft | 308 kts | 145° |
| 2026-04-16 20:49 | 9.38310 | -79.22957 | 15549 ft | 308 kts | 145° |
| 2026-04-16 20:50 | 9.36593 | -79.21677 | 15281 ft | 304 kts | 146° |
| 2026-04-16 20:50 | 9.34902 | -79.20419 | 15002 ft | 301 kts | 146° |
| 2026-04-16 20:50 | 9.33215 | -79.19162 | 14715 ft | 301 kts | 146° |
| 2026-04-16 20:50 | 9.31528 | -79.17909 | 14467 ft | 298 kts | 146° |
| 2026-04-16 20:51 | 9.29863 | -79.16672 | 14033 ft | 298 kts | 147° |
| 2026-04-16 20:51 | 9.28191 | -79.15459 | 13604 ft | 293 kts | 152° |
| 2026-04-16 20:51 | 9.26343 | -79.14779 | 13165 ft | 284 kts | 176° |
| 2026-04-16 20:51 | 9.24404 | -79.14888 | 12709 ft | 277 kts | 198° |
| 2026-04-16 20:52 | 9.22698 | -79.15704 | 12293 ft | 269 kts | 217° |
| 2026-04-16 20:52 | 9.21169 | -79.16804 | 11917 ft | 270 kts | 217° |
| 2026-04-16 20:52 | 9.19628 | -79.17880 | 11525 ft | 268 kts | 217° |
| 2026-04-16 20:52 | 9.18077 | -79.18934 | 11188 ft | 268 kts | 216° |
| 2026-04-16 20:53 | 9.16518 | -79.19980 | 10872 ft | 270 kts | 216° |
| 2026-04-16 20:53 | 9.14952 | -79.21027 | 10532 ft | 268 kts | 215° |
| 2026-04-16 20:53 | 9.13396 | -79.22064 | 10206 ft | 268 kts | 215° |
| 2026-04-16 20:53 | 9.11830 | -79.23109 | 9876 ft | 270 kts | 215° |
| 2026-04-16 20:54 | 9.10264 | -79.24154 | 9513 ft | 269 kts | 215° |
| 2026-04-16 20:54 | 9.08706 | -79.25192 | 9132 ft | 268 kts | 215° |
| 2026-04-16 20:54 | 9.07147 | -79.26234 | 8753 ft | 269 kts | 215° |
| 2026-04-16 20:54 | 9.05597 | -79.27273 | 8508 ft | 265 kts | 215° |
| 2026-04-16 20:55 | 9.04047 | -79.28310 | 8395 ft | 269 kts | 215° |
| 2026-04-16 20:55 | 9.02483 | -79.29351 | 8271 ft | 269 kts | 214° |
| 2026-04-16 20:55 | 9.00845 | -79.30288 | 8081 ft | 270 kts | 209° |
| 2026-04-16 20:55 | 8.99212 | -79.31166 | 7705 ft | 262 kts | 210° |
| 2026-04-16 20:56 | 8.97619 | -79.32029 | 7327 ft | 258 kts | 210° |
| 2026-04-16 20:56 | 8.96044 | -79.32887 | 6965 ft | 256 kts | 210° |
| 2026-04-16 20:56 | 8.94485 | -79.33739 | 6594 ft | 254 kts | 210° |
| 2026-04-16 20:56 | 8.92934 | -79.34591 | 6202 ft | 253 kts | 210° |
| 2026-04-16 20:57 | 8.91388 | -79.35439 | 5822 ft | 251 kts | 210° |
| 2026-04-16 20:57 | 8.89860 | -79.36277 | 5433 ft | 251 kts | 210° |
| 2026-04-16 20:57 | 8.88354 | -79.37102 | 5087 ft | 246 kts | 210° |
| 2026-04-16 20:57 | 8.86842 | -79.37929 | 4558 ft | 248 kts | 209° |
| 2026-04-16 20:58 | 8.85345 | -79.38755 | 4177 ft | 239 kts | 212° |
| 2026-04-16 20:58 | 8.84203 | -79.39877 | 3922 ft | 223 kts | 242° |
| 2026-04-16 20:58 | 8.83789 | -79.41325 | 3678 ft | 210 kts | 274° |
| 2026-04-16 20:58 | 8.84158 | -79.42689 | 3432 ft | 198 kts | 305° |
| 2026-04-16 20:59 | 8.85047 | -79.43703 | 3215 ft | 191 kts | 321° |
| 2026-04-16 20:59 | 8.85974 | -79.44629 | 3103 ft | 184 kts | 317° |
| 2026-04-16 20:59 | 8.86855 | -79.45601 | 3095 ft | 189 kts | 315° |
| 2026-04-16 20:59 | 8.87708 | -79.46599 | 3100 ft | 186 kts | 314° |
| 2026-04-16 21:00 | 8.88722 | -79.47371 | 3114 ft | 182 kts | 343° |
| 2026-04-16 21:00 | 8.89972 | -79.47440 | 3102 ft | 182 kts | 12° |
| 2026-04-16 21:00 | 8.91138 | -79.47015 | 3015 ft | 175 kts | 25° |
| 2026-04-16 21:00 | 8.92201 | -79.46431 | 2763 ft | 173 kts | 29° |
| 2026-04-16 21:01 | 8.93239 | -79.45835 | 2538 ft | 170 kts | 28° |
| 2026-04-16 21:01 | 8.94261 | -79.45252 | 2316 ft | 168 kts | 28° |
| 2026-04-16 21:01 | 8.95274 | -79.44676 | 2091 ft | 169 kts | 27° |
| 2026-04-16 21:01 | 8.96283 | -79.44099 | 1884 ft | 166 kts | 27° |
| 2026-04-16 21:02 | 8.97284 | -79.43527 | 1668 ft | 162 kts | 27° |
| 2026-04-16 21:02 | 8.98241 | -79.42986 | 1456 ft | 156 kts | 27° |
| 2026-04-16 21:02 | 8.99142 | -79.42466 | 1272 ft | 143 kts | 27° |
| 2026-04-16 21:03 | 9.00849 | -79.41490 | 944 ft | 147 kts | 29° |
| 2026-04-16 21:03 | 9.01727 | -79.40982 | 748 ft | 141 kts | 30° |
| 2026-04-16 21:03 | 9.02550 | -79.40520 | 574 ft | 132 kts | 30° |
| 2026-04-16 21:03 | 9.03372 | -79.40055 | 411 ft | 141 kts | 32° |
| 2026-04-16 21:04 | 9.04243 | -79.39549 | 211 ft | 143 kts | 29° |
| 2026-04-16 21:04 | 9.05074 | -79.39081 | 43 ft | 130 kts | 30° |
| 2026-04-16 21:04 | 9.05689 | -79.38733 | 37 ft | 73 kts | 29° |
| 2026-04-16 21:04 | 9.06069 | -79.38518 | 37 ft | 46 kts | 29° |
| 2026-04-16 21:05 | 9.06281 | -79.38398 | 37 ft | 28 kts | 29° |
| 2026-04-16 21:05 | 9.06437 | -79.38377 | 35 ft | 19 kts | 358° |
| 2026-04-16 21:05 | 9.06547 | -79.38378 | 36 ft | 15 kts | 359° |
| 2026-04-16 21:05 | 9.06633 | -79.38383 | 36 ft | 9 kts | 342° |
| 2026-04-16 21:06 | 9.06660 | -79.38430 | 36 ft | 8 kts | 298° |
| 2026-04-16 21:06 | 9.06646 | -79.38472 | 36 ft | 6 kts | 217° |
| 2026-04-16 21:06 | 9.06602 | -79.38493 | 36 ft | 7 kts | 209° |
| 2026-04-16 21:06 | 9.06595 | -79.38521 | 36 ft | 4 kts | 268° |
| 2026-04-16 21:07 | 9.06609 | -79.38548 | 36 ft | 5 kts | 300° |
| 2026-04-16 21:07 | 9.06626 | -79.38577 | 36 ft | 4 kts | 301° |
| 2026-04-16 21:07 | 9.06635 | -79.38592 | 36 ft | 3 kts | 301° |
| 2026-04-16 21:07 | 9.06639 | -79.38599 | 34 ft | 0 kts | 301° |